NOAA Web Site Link Tides and Currents Home Page Transparent placeholder image

PORTS® Data Listing: 8638901 CBBT, Chesapeake Channel, VA

CO-OPS RAW PORTS DATA

************************      PRELIMINARY DATA      ************************** 

     THIS RAW DATA HAS NOT BEEN SUBJECT TO THE NATIONAL OCEAN SERVICE'S        
     QUALITY CONTROL OR QUALITY ASSURANCE PROCEDURES AND DOES NOT MEET         
     THE CRITERIA AND STANDARDS OF OFFICIAL NATIONAL OCEAN SERVICE             
     DATA.  IT IS RELEASED FOR LIMITED PUBLIC USE AS PRELIMINARY DATA TO       
     BE USED ONLY WITH APPROPRIATE CAUTION.                                    

************************      PRELIMINARY DATA      ************************** 


       CD   -   Calendar date
       T    -   Time
       TZ   -   Timezone
       PW   -   Predicted water level (feet above MLLW)
       OW   -   Observed water level (feet above MLLW)
       WS   -   Wind speed (knots)
       WD   -   Wind direction (degrees true)
       WG   -   Wind gust (knots)
       AT   -   Air temperature (degrees farenheit)
       WT   -   Water temperature (degrees farenheit)
       AP   -   Air pressure (millibars)
       SA   -   Salinty (PSU - Practical Salinity Units)
       SG   -   Specific gravity
       RH   -   Relative humidity
       AG   -   Air gap (feet)
       VI   -   Visibility (nautical miles)

       ** NOTE **
       A variable that has its data fields filled with "9"s, indicates that
       data was not collected for that sample period.
       **********

NOTICE OF PROVISIONAL DATUM
These datums and any data referred to said datum are PROVISIONAL and
subject to revision until they have been thoroughly reviewed and received final
approval.  Subsequent review based on field inspections and additional
measurements may result in revisions to the data and datums.  Data users are
cautioned to consider the conditional nature of this information before using
it for critical decisions such as those that concern physical or public safety.
Only after meeting all standards for quality control assurance will the datums
be classified as Accepted Datums.

STATION NAME: CBBT, Chesapeake Channel (8638901)
****************************************************************************************************
    CD       T    TZ    PW     OW    WS   WD   WG    AT    WT    AP    SA    SG     RH    AG   VI
****************************************************************************************************
2018/07/17 10:36 EDT    2.25   2.73    5  198    6  82.8 -99.9 1012.6 -9.9 -9.999 -99.9 -99.99 -9.99
2018/07/17 10:42 EDT    2.32   2.80    5  197    6  82.8 -99.9 1012.7 -9.9 -9.999 -99.9 -99.99 -9.99
2018/07/17 10:48 EDT    2.39   2.88    4  197    6  82.9 -99.9 1012.7 -9.9 -9.999 -99.9 -99.99 -9.99
2018/07/17 10:54 EDT    2.46   2.96    4  186    5  83.1 -99.9 1012.7 -9.9 -9.999 -99.9 -99.99 -9.99
2018/07/17 11:00 EDT    2.52   2.97    4  194    5  83.5 -99.9 1012.7 -9.9 -9.999 -99.9 -99.99 -9.99
2018/07/17 11:06 EDT    2.58   3.03    4  188    6  83.7 -99.9 1012.7 -9.9 -9.999 -99.9 -99.99 -9.99
2018/07/17 11:12 EDT    2.64   3.10    4  183    5  84.0 -99.9 1012.6 -9.9 -9.999 -99.9 -99.99 -9.99
2018/07/17 11:18 EDT    2.69   3.16    3  186    4  84.4 -99.9 1012.6 -9.9 -9.999 -99.9 -99.99 -9.99
2018/07/17 11:24 EDT    2.75   3.22    6  211    8  85.1 -99.9 1012.6 -9.9 -9.999 -99.9 -99.99 -9.99
2018/07/17 11:30 EDT    2.79   3.24    8  219   11  85.5 -99.9 1012.5 -9.9 -9.999 -99.9 -99.99 -9.99
2018/07/17 11:36 EDT    2.83   3.28    8  222   11  85.8 -99.9 1012.5 -9.9 -9.999 -99.9 -99.99 -9.99
2018/07/17 11:42 EDT    2.87   3.31    8  225   11  85.8 -99.9 1012.4 -9.9 -9.999 -99.9 -99.99 -9.99
2018/07/17 11:48 EDT    2.91   3.35    8  221   11  85.6 -99.9 1012.3 -9.9 -9.999 -99.9 -99.99 -9.99
2018/07/17 11:54 EDT    2.94   3.36   10  218   13  86.4 -99.9 1012.3 -9.9 -9.999 -99.9 -99.99 -9.99
2018/07/17 12:00 EDT    2.97   3.37    9  221   13  86.5 -99.9 1012.2 -9.9 -9.999 -99.9 -99.99 -9.99
2018/07/17 12:06 EDT    2.99   3.41    9  213   11  86.4 -99.9 1012.1 -9.9 -9.999 -99.9 -99.99 -9.99
2018/07/17 12:12 EDT    3.01   3.45   11  214   13  86.2 -99.9 1012.0 -9.9 -9.999 -99.9 -99.99 -9.99
2018/07/17 12:18 EDT    3.03   3.45   11  219   15  86.5 -99.9 1012.0 -9.9 -9.999 -99.9 -99.99 -9.99
2018/07/17 12:24 EDT    3.04   3.47   10  219   14  86.4 -99.9 1012.0 -9.9 -9.999 -99.9 -99.99 -9.99
2018/07/17 12:30 EDT    3.05   3.47    9  218   13  86.4 -99.9 1011.9 -9.9 -9.999 -99.9 -99.99 -9.99
2018/07/17 12:36 EDT    3.05   3.46   10  214   13  86.4 -99.9 1011.9 -9.9 -9.999 -99.9 -99.99 -9.99
2018/07/17 12:42 EDT    3.05   3.46   13  214   15  86.7 -99.9 1011.8 -9.9 -9.999 -99.9 -99.99 -9.99
2018/07/17 12:48 EDT    3.05   3.48   13  211   15  86.7 -99.9 1011.7 -9.9 -9.999 -99.9 -99.99 -9.99
2018/07/17 12:54 EDT    3.04   3.45   10  217   15  86.9 -99.9 1011.6 -9.9 -9.999 -99.9 -99.99 -9.99
2018/07/17 13:00 EDT    3.03   3.43   10  213   14  86.9 -99.9 1011.6 -9.9 -9.999 -99.9 -99.99 -9.99
2018/07/17 13:06 EDT    3.02   3.39   12  214   14  86.9 -99.9 1011.5 -9.9 -9.999 -99.9 -99.99 -9.99
2018/07/17 13:12 EDT    3.00   3.38   12  224   15  87.1 -99.9 1011.3 -9.9 -9.999 -99.9 -99.99 -9.99
2018/07/17 13:18 EDT    2.98   3.38    9  218   15  87.3 -99.9 1011.2 -9.9 -9.999 -99.9 -99.99 -9.99
2018/07/17 13:24 EDT    2.96   3.29   12  216   16  87.4 -99.9 1011.1 -9.9 -9.999 -99.9 -99.99 -9.99
2018/07/17 13:30 EDT    2.93   3.30   10  224   14  87.3 -99.9 1011.1 -9.9 -9.999 -99.9 -99.99 -9.99
2018/07/17 13:36 EDT    2.90   3.23   11  217   15  87.8 -99.9 1011.0 -9.9 -9.999 -99.9 -99.99 -9.99
2018/07/17 13:42 EDT    2.87   3.22    9  220   16  87.6 -99.9 1010.9 -9.9 -9.999 -99.9 -99.99 -9.99
2018/07/17 13:48 EDT    2.84   3.21    8  221   11  87.3 -99.9 1010.8 -9.9 -9.999 -99.9 -99.99 -9.99
2018/07/17 13:54 EDT    2.80   3.18   10  220   14  87.6 -99.9 1010.6 -9.9 -9.999 -99.9 -99.99 -9.99
2018/07/17 14:00 EDT    2.76   3.14   11  221   14  87.8 -99.9 1010.6 -9.9 -9.999 -99.9 -99.99 -9.99
2018/07/17 14:06 EDT    2.71   3.12   12  219   17  88.0 -99.9 1010.5 -9.9 -9.999 -99.9 -99.99 -9.99
2018/07/17 14:12 EDT    2.66   3.08   10  221   14  88.0 -99.9 1010.4 -9.9 -9.999 -99.9 -99.99 -9.99
2018/07/17 14:18 EDT    2.61   3.01   11  218   14  87.8 -99.9 1010.3 -9.9 -9.999 -99.9 -99.99 -9.99
2018/07/17 14:24 EDT    2.56   2.99   11  224   14  88.0 -99.9 1010.2 -9.9 -9.999 -99.9 -99.99 -9.99
2018/07/17 14:30 EDT    2.51   2.91    9  229   12  87.6 -99.9 1010.1 -9.9 -9.999 -99.9 -99.99 -9.99
2018/07/17 14:36 EDT    2.45   2.89    8  223   12  88.0 -99.9 1010.0 -9.9 -9.999 -99.9 -99.99 -9.99
2018/07/17 14:42 EDT    2.39   2.80    9  221   14  88.2 -99.9 1009.8 -9.9 -9.999 -99.9 -99.99 -9.99
2018/07/17 14:48 EDT    2.32   2.78    9  213   12  88.2 -99.9 1009.7 -9.9 -9.999 -99.9 -99.99 -9.99
2018/07/17 14:54 EDT    2.26   2.72    9  221   13  88.2 -99.9 1009.7 -9.9 -9.999 -99.9 -99.99 -9.99
2018/07/17 15:00 EDT    2.19   2.61   10  220   15  88.3 -99.9 1009.5 -9.9 -9.999 -99.9 -99.99 -9.99
2018/07/17 15:06 EDT    2.12   2.56    9  222   12  88.2 -99.9 1009.4 -9.9 -9.999 -99.9 -99.99 -9.99
2018/07/17 15:12 EDT    2.05   2.52   12  225   16  88.3 -99.9 1009.3 -9.9 -9.999 -99.9 -99.99 -9.99
2018/07/17 15:18 EDT    1.97   2.43   10  223   14  88.0 -99.9 1009.3 -9.9 -9.999 -99.9 -99.99 -9.99
2018/07/17 15:24 EDT    1.90   2.34   10  222   13  88.3 -99.9 1009.3 -9.9 -9.999 -99.9 -99.99 -9.99
2018/07/17 15:30 EDT    1.82   2.25   11  219   12  88.7 -99.9 1009.3 -9.9 -9.999 -99.9 -99.99 -9.99
2018/07/17 15:36 EDT    1.74   2.21   11  225   15  88.2 -99.9 1009.2 -9.9 -9.999 -99.9 -99.99 -9.99
2018/07/17 15:42 EDT    1.66   2.14   12  220   15  88.2 -99.9 1009.1 -9.9 -9.999 -99.9 -99.99 -9.99
2018/07/17 15:48 EDT    1.58   2.05   13  225   17  88.9 -99.9 1009.0 -9.9 -9.999 -99.9 -99.99 -9.99
2018/07/17 15:54 EDT    1.50   1.99   11  221   16  88.7 -99.9 1008.9 -9.9 -9.999 -99.9 -99.99 -9.99
2018/07/17 16:00 EDT    1.42   1.89   12  220   16  88.3 -99.9 1008.9 -9.9 -9.999 -99.9 -99.99 -9.99
2018/07/17 16:06 EDT    1.34   1.78   13  229   18  88.2 -99.9 1009.0 -9.9 -9.999 -99.9 -99.99 -9.99
2018/07/17 16:12 EDT    1.26   1.67   11  221   14  87.6 -99.9 1008.9 -9.9 -9.999 -99.9 -99.99 -9.99
2018/07/17 16:18 EDT    1.18   1.59   11  223   15  87.8 -99.9 1008.6 -9.9 -9.999 -99.9 -99.99 -9.99
2018/07/17 16:24 EDT    1.11   1.52   11  220   17  88.0 -99.9 1008.7 -9.9 -9.999 -99.9 -99.99 -9.99
2018/07/17 16:30 EDT    1.03   1.41   11  230   15  87.6 -99.9 1008.7 -9.9 -9.999 -99.9 -99.99 -9.99
2018/07/17 16:36 EDT    0.95   1.35   13  228   16  87.4 -99.9 1008.7 -9.9 -9.999 -99.9 -99.99 -9.99
2018/07/17 16:42 EDT    0.88   1.27   12  227   16  87.8 -99.9 1008.6 -9.9 -9.999 -99.9 -99.99 -9.99
2018/07/17 16:48 EDT    0.81   1.21   11  225   14  87.8 -99.9 1008.7 -9.9 -9.999 -99.9 -99.99 -9.99
2018/07/17 16:54 EDT    0.74   1.12   10  231   13  87.6 -99.9 1008.7 -9.9 -9.999 -99.9 -99.99 -9.99
2018/07/17 17:00 EDT    0.67   1.06   14  244   19  87.1 -99.9 1008.6 -9.9 -9.999 -99.9 -99.99 -9.99
2018/07/17 17:06 EDT    0.61   1.00   17  251   19  86.7 -99.9 1008.4 -9.9 -9.999 -99.9 -99.99 -9.99
2018/07/17 17:12 EDT    0.55   0.92   16  249   18  86.5 -99.9 1008.3 -9.9 -9.999 -99.9 -99.99 -9.99
2018/07/17 17:18 EDT    0.49   0.85   15  244   19  86.7 -99.9 1008.4 -9.9 -9.999 -99.9 -99.99 -9.99
2018/07/17 17:24 EDT    0.44   0.82   15  246   17  86.4 -99.9 1008.2 -9.9 -9.999 -99.9 -99.99 -9.99
2018/07/17 17:30 EDT    0.38   0.74   11  238   16  86.5 -99.9 1008.3 -9.9 -9.999 -99.9 -99.99 -9.99
2018/07/17 17:36 EDT    0.34   0.64   15  244   18  86.5 -99.9 1008.2 -9.9 -9.999 -99.9 -99.99 -9.99
2018/07/17 17:42 EDT    0.29   0.63   11  236   14  86.9 -99.9 1008.2 -9.9 -9.999 -99.9 -99.99 -9.99
2018/07/17 17:48 EDT    0.25   0.57   16  246   20  86.7 -99.9 1008.1 -9.9 -9.999 -99.9 -99.99 -9.99
2018/07/17 17:54 EDT    0.21   0.60   17  225   20  85.5 -99.9 1008.2 -9.9 -9.999 -99.9 -99.99 -9.99
2018/07/17 18:00 EDT    0.17   0.53   12  220   20  85.6 -99.9 1008.2 -9.9 -9.999 -99.9 -99.99 -9.99
2018/07/17 18:06 EDT    0.14   0.48   11  222   15  85.8 -99.9 1008.1 -9.9 -9.999 -99.9 -99.99 -9.99
2018/07/17 18:12 EDT    0.12   0.48    8  218   14  85.6 -99.9 1008.1 -9.9 -9.999 -99.9 -99.99 -9.99
2018/07/17 18:18 EDT    0.09   0.43    7  221   11  85.8 -99.9 1008.1 -9.9 -9.999 -99.9 -99.99 -9.99
2018/07/17 18:24 EDT    0.07   0.40    9  224   11  85.8 -99.9 1008.4 -9.9 -9.999 -99.9 -99.99 -9.99
2018/07/17 18:30 EDT    0.05   0.38    6  234   10  85.6 -99.9 1008.5 -9.9 -9.999 -99.9 -99.99 -9.99
2018/07/17 18:36 EDT    0.04   0.34    6  239   10  85.3 -99.9 1008.5 -9.9 -9.999 -99.9 -99.99 -9.99
2018/07/17 18:42 EDT    0.03   0.32    9  239   12  85.5 -99.9 1008.6 -9.9 -9.999 -99.9 -99.99 -9.99
2018/07/17 18:48 EDT    0.03   0.33   11  248   13  84.9 -99.9 1008.6 -9.9 -9.999 -99.9 -99.99 -9.99
2018/07/17 18:54 EDT    0.03   0.36   11  255   12  84.2 -99.9 1008.5 -9.9 -9.999 -99.9 -99.99 -9.99
2018/07/17 19:00 EDT    0.03   0.35   11  253   12  84.0 -99.9 1008.5 -9.9 -9.999 -99.9 -99.99 -9.99
2018/07/17 19:06 EDT    0.03   0.35   11  264   12  83.7 -99.9 1008.7 -9.9 -9.999 -99.9 -99.99 -9.99
2018/07/17 19:12 EDT    0.04   0.35   10  272   12  83.5 -99.9 1008.9 -9.9 -9.999 -99.9 -99.99 -9.99
2018/07/17 19:18 EDT    0.06   0.37   12  278   13  83.3 -99.9 1009.1 -9.9 -9.999 -99.9 -99.99 -9.99
2018/07/17 19:24 EDT    0.07   0.40   11  279   14  83.1 -99.9 1009.3 -9.9 -9.999 -99.9 -99.99 -9.99
2018/07/17 19:30 EDT    0.09   0.43   15  278   17  83.5 -99.9 1009.4 -9.9 -9.999 -99.9 -99.99 -9.99
2018/07/17 19:36 EDT    0.12   0.46   16  270   17  83.8 -99.9 1009.3 -9.9 -9.999 -99.9 -99.99 -9.99
2018/07/17 19:42 EDT    0.15   0.50   16  269   18  83.8 -99.9 1009.3 -9.9 -9.999 -99.9 -99.99 -9.99
2018/07/17 19:48 EDT    0.18   0.57   14  270   17  84.0 -99.9 1009.3 -9.9 -9.999 -99.9 -99.99 -9.99
2018/07/17 19:54 EDT    0.21   0.60   15  266   16  83.8 -99.9 1009.4 -9.9 -9.999 -99.9 -99.99 -9.99
2018/07/17 20:00 EDT    0.25   0.64   13  262   14  83.5 -99.9 1009.3 -9.9 -9.999 -99.9 -99.99 -9.99
2018/07/17 20:06 EDT    0.29   0.64   13  260   15  83.3 -99.9 1009.2 -9.9 -9.999 -99.9 -99.99 -9.99
2018/07/17 20:12 EDT    0.34   0.67   13  259   14  83.1 -99.9 1009.2 -9.9 -9.999 -99.9 -99.99 -9.99
2018/07/17 20:18 EDT    0.39   0.73   12  262   13  82.9 -99.9 1009.3 -9.9 -9.999 -99.9 -99.99 -9.99
2018/07/17 20:24 EDT    0.44   0.75   11  259   13  82.8 -99.9 1009.3 -9.9 -9.999 -99.9 -99.99 -9.99
2018/07/17 20:30 EDT    0.49   0.83   11  256   12  82.4 -99.9 1009.3 -9.9 -9.999 -99.9 -99.99 -9.99
2018/07/17 20:36 EDT    0.55   0.91   11  249   11  82.4 -99.9 1009.3 -9.9 -9.999 -99.9 -99.99 -9.99
2018/07/17 20:42 EDT    0.61   1.04   11  255   12  82.2 -99.9 1009.3 -9.9 -9.999 -99.9 -99.99 -9.99
2018/07/17 20:48 EDT    0.67   1.11   12  261   13  82.2 -99.9 1009.4 -9.9 -9.999 -99.9 -99.99 -9.99
2018/07/17 20:54 EDT    0.73   1.18    9  249   12  82.2 -99.9 1009.5 -9.9 -9.999 -99.9 -99.99 -9.99
2018/07/17 21:00 EDT    0.80   1.26    8  251    9  82.0 -99.9 1009.5 -9.9 -9.999 -99.9 -99.99 -9.99
2018/07/17 21:06 EDT    0.86   1.33    9  272   11  82.2 -99.9 1009.5 -9.9 -9.999 -99.9 -99.99 -9.99
2018/07/17 21:12 EDT    0.93   1.37   10  258   11  82.2 -99.9 1009.6 -9.9 -9.999 -99.9 -99.99 -9.99
2018/07/17 21:18 EDT    1.00   1.39    9  262   10  82.2 -99.9 1009.5 -9.9 -9.999 -99.9 -99.99 -9.99
2018/07/17 21:24 EDT    1.08   1.43   10  263   10  82.2 -99.9 1009.5 -9.9 -9.999 -99.9 -99.99 -9.99
2018/07/17 21:30 EDT    1.15   1.53    8  257    9  82.2 -99.9 1009.6 -9.9 -9.999 -99.9 -99.99 -9.99
2018/07/17 21:36 EDT    1.23   1.64    6  253    7  81.9 -99.9 1009.6 -9.9 -9.999 -99.9 -99.99 -9.99
2018/07/17 21:42 EDT    1.30   1.74    8  245   10  81.7 -99.9 1009.6 -9.9 -9.999 -99.9 -99.99 -9.99
2018/07/17 21:48 EDT    1.38   1.77    9  241   12  82.2 -99.9 1009.7 -9.9 -9.999 -99.9 -99.99 -9.99
2018/07/17 21:54 EDT    1.46   1.92   10  233   13  82.0 -99.9 1009.6 -9.9 -9.999 -99.9 -99.99 -9.99
2018/07/17 22:00 EDT    1.53   2.02   11  229   14  81.9 -99.9 1009.6 -9.9 -9.999 -99.9 -99.99 -9.99
2018/07/17 22:06 EDT    1.61   2.07   13  223   16  81.7 -99.9 1009.7 -9.9 -9.999 -99.9 -99.99 -9.99
2018/07/17 22:12 EDT    1.69   2.14   11  222   16  81.7 -99.9 1009.9 -9.9 -9.999 -99.9 -99.99 -9.99
2018/07/17 22:18 EDT    1.77   2.20   12  229   15  81.5 -99.9 1010.2 -9.9 -9.999 -99.9 -99.99 -9.99
2018/07/17 22:24 EDT    1.84   2.25   14  235   17  81.1 -99.9 1010.1 -9.9 -9.999 -99.9 -99.99 -9.99
2018/07/17 22:30 EDT    1.92   2.34   13  235   19  80.4 -99.9 1009.9 -9.9 -9.999 -99.9 -99.99 -9.99
2018/07/17 22:36 EDT    1.99   2.38   12  230   16  79.9 -99.9 1009.8 -9.9 -9.999 -99.9 -99.99 -9.99
2018/07/17 22:42 EDT    2.07   2.49   10  234   16  79.7 -99.9 1009.9 -9.9 -9.999 -99.9 -99.99 -9.99
2018/07/17 22:48 EDT    2.14   2.56    9  239   12  79.5 -99.9 1009.9 -9.9 -9.999 -99.9 -99.99 -9.99
2018/07/17 22:54 EDT    2.21   2.62   16  263   18  79.2 -99.9 1009.7 -9.9 -9.999 -99.9 -99.99 -9.99
2018/07/17 23:00 EDT    2.28   2.75   15  273   18  78.1 -99.9 1009.6 -9.9 -9.999 -99.9 -99.99 -9.99
2018/07/17 23:06 EDT    2.34   2.84   17  274   19  78.3 -99.9 1009.5 -9.9 -9.999 -99.9 -99.99 -9.99
2018/07/17 23:12 EDT    2.41   2.87   17  276   20  78.4 -99.9 1009.4 -9.9 -9.999 -99.9 -99.99 -9.99
2018/07/17 23:18 EDT    2.47   2.91   15  271   19  78.4 -99.9 1009.3 -9.9 -9.999 -99.9 -99.99 -9.99
2018/07/17 23:24 EDT    2.52   2.99   14  259   19  78.4 -99.9 1009.2 -9.9 -9.999 -99.9 -99.99 -9.99
2018/07/17 23:30 EDT    2.58   3.04   14  256   15  78.4 -99.9 1009.1 -9.9 -9.999 -99.9 -99.99 -9.99
2018/07/17 23:36 EDT    2.63   3.11   15  259   16  78.4 -99.9 1009.4 -9.9 -9.999 -99.9 -99.99 -9.99
2018/07/17 23:42 EDT    2.68   3.19   13  273   16  78.6 -99.9 1009.7 -9.9 -9.999 -99.9 -99.99 -9.99
2018/07/17 23:48 EDT    2.72   3.20   12  269   15  78.6 -99.9 1009.9 -9.9 -9.999 -99.9 -99.99 -9.99
2018/07/17 23:54 EDT    2.76   3.25   17  261   20  78.8 -99.9 1010.1 -9.9 -9.999 -99.9 -99.99 -9.99
2018/07/18 00:00 EDT    2.80   3.30   18  260   21  78.3 -99.9 1010.0 -9.9 -9.999 -99.9 -99.99 -9.99
2018/07/18 00:06 EDT    2.84   3.34   18  261   20  78.3 -99.9 1010.1 -9.9 -9.999 -99.9 -99.99 -9.99
2018/07/18 00:12 EDT    2.87   3.34   19  263   21  78.3 -99.9 1010.2 -9.9 -9.999 -99.9 -99.99 -9.99
2018/07/18 00:18 EDT    2.89   3.36   17  256   22  77.9 -99.9 1010.3 -9.9 -9.999 -99.9 -99.99 -9.99
2018/07/18 00:24 EDT    2.92   3.39   18  252   21  77.2 -99.9 1010.2 -9.9 -9.999 -99.9 -99.99 -9.99
2018/07/18 00:30 EDT    2.93   3.42   19  249   21  76.8 -99.9 1010.1 -9.9 -9.999 -99.9 -99.99 -9.99
2018/07/18 00:36 EDT    2.95   3.43   17  249   20  76.6 -99.9 1010.1 -9.9 -9.999 -99.9 -99.99 -9.99
2018/07/18 00:42 EDT    2.96   3.40   17  255   20  76.5 -99.9 1010.2 -9.9 -9.999 -99.9 -99.99 -9.99
2018/07/18 00:48 EDT    2.97   3.42   17  262   19  76.3 -99.9 1010.2 -9.9 -9.999 -99.9 -99.99 -9.99
2018/07/18 00:54 EDT    2.97   3.44   16  259   18  76.5 -99.9 1010.1 -9.9 -9.999 -99.9 -99.99 -9.99
2018/07/18 01:00 EDT    2.97   3.42   19  264   21  76.3 -99.9 1010.1 -9.9 -9.999 -99.9 -99.99 -9.99
2018/07/18 01:06 EDT    2.97   3.42   18  269   21  76.3 -99.9 1010.1 -9.9 -9.999 -99.9 -99.99 -9.99
2018/07/18 01:12 EDT    2.96   3.41   15  271   20  76.6 -99.9 1010.0 -9.9 -9.999 -99.9 -99.99 -9.99
2018/07/18 01:18 EDT    2.96   3.37   15  273   19  76.6 -99.9 1009.9 -9.9 -9.999 -99.9 -99.99 -9.99
2018/07/18 01:24 EDT    2.94   3.36   17  273   19  76.5 -99.9 1009.9 -9.9 -9.999 -99.9 -99.99 -9.99
2018/07/18 01:30 EDT    2.93   3.35   15  279   18  76.8 -99.9 1009.9 -9.9 -9.999 -99.9 -99.99 -9.99
2018/07/18 01:36 EDT    2.91   3.36   16  282   18  76.8 -99.9 1009.9 -9.9 -9.999 -99.9 -99.99 -9.99
2018/07/18 01:42 EDT    2.89   3.32   17  282   19  76.8 -99.9 1009.8 -9.9 -9.999 -99.9 -99.99 -9.99
2018/07/18 01:48 EDT    2.86   3.35   15  277   19  76.8 -99.9 1009.8 -9.9 -9.999 -99.9 -99.99 -9.99
2018/07/18 01:54 EDT    2.83   3.29   12  275   16  77.0 -99.9 1009.8 -9.9 -9.999 -99.9 -99.99 -9.99
2018/07/18 02:00 EDT    2.80   3.26   13  270   15  77.2 -99.9 1009.8 -9.9 -9.999 -99.9 -99.99 -9.99
2018/07/18 02:06 EDT    2.77   3.20   11  271   14  77.0 -99.9 1009.7 -9.9 -9.999 -99.9 -99.99 -9.99
2018/07/18 02:12 EDT    2.73   3.23   12  273   14  77.0 -99.9 1009.6 -9.9 -9.999 -99.9 -99.99 -9.99
2018/07/18 02:18 EDT    2.70   3.14   14  279   16  77.2 -99.9 1009.7 -9.9 -9.999 -99.9 -99.99 -9.99
2018/07/18 02:24 EDT    2.65   3.11   15  280   16  77.2 -99.9 1009.5 -9.9 -9.999 -99.9 -99.99 -9.99
2018/07/18 02:30 EDT    2.61   3.08   14  282   16  77.2 -99.9 1009.5 -9.9 -9.999 -99.9 -99.99 -9.99
2018/07/18 02:36 EDT    2.56   3.07   16  288   19  77.0 -99.9 1009.4 -9.9 -9.999 -99.9 -99.99 -9.99
2018/07/18 02:42 EDT    2.51   2.98   15  292   17  77.2 -99.9 1009.2 -9.9 -9.999 -99.9 -99.99 -9.99
2018/07/18 02:48 EDT    2.46   2.92   16  296   18  77.4 -99.9 1009.1 -9.9 -9.999 -99.9 -99.99 -9.99
2018/07/18 02:54 EDT    2.40   2.87   17  292   19  77.4 -99.9 1009.0 -9.9 -9.999 -99.9 -99.99 -9.99
2018/07/18 03:00 EDT    2.34   2.82   15  289   18  77.5 -99.9 1009.0 -9.9 -9.999 -99.9 -99.99 -9.99
2018/07/18 03:06 EDT    2.28   2.76   14  290   17  77.5 -99.9 1009.0 -9.9 -9.999 -99.9 -99.99 -9.99
2018/07/18 03:12 EDT    2.22   2.68   16  287   17  77.5 -99.9 1009.1 -9.9 -9.999 -99.9 -99.99 -9.99
2018/07/18 03:18 EDT    2.15   2.66   16  292   20  77.5 -99.9 1009.3 -9.9 -9.999 -99.9 -99.99 -9.99
2018/07/18 03:24 EDT    2.08   2.56   15  292   18  77.7 -99.9 1009.5 -9.9 -9.999 -99.9 -99.99 -9.99
2018/07/18 03:30 EDT    2.01   2.53   14  290   17  77.5 -99.9 1009.5 -9.9 -9.999 -99.9 -99.99 -9.99
2018/07/18 03:36 EDT    1.94   2.48   15  293   18  77.5 -99.9 1009.6 -9.9 -9.999 -99.9 -99.99 -9.99
2018/07/18 03:42 EDT    1.86   2.41   14  305   17  77.7 -99.9 1009.7 -9.9 -9.999 -99.9 -99.99 -9.99
2018/07/18 03:48 EDT    1.79   2.29   16  302   18  77.2 -99.9 1009.7 -9.9 -9.999 -99.9 -99.99 -9.99
2018/07/18 03:54 EDT    1.71   2.27   15  300   18  76.8 -99.9 1009.6 -9.9 -9.999 -99.9 -99.99 -9.99
2018/07/18 04:00 EDT    1.63   2.18   13  307   16  77.0 -99.9 1009.6 -9.9 -9.999 -99.9 -99.99 -9.99
2018/07/18 04:06 EDT    1.55   2.10   15  313   17  76.6 -99.9 1009.5 -9.9 -9.999 -99.9 -99.99 -9.99
2018/07/18 04:12 EDT    1.47   1.95   14  315   16  76.6 -99.9 1009.4 -9.9 -9.999 -99.9 -99.99 -9.99
2018/07/18 04:18 EDT    1.39   1.89   13  309   17  76.6 -99.9 1009.4 -9.9 -9.999 -99.9 -99.99 -9.99
2018/07/18 04:24 EDT    1.31   1.85   13  310   15  76.6 -99.9 1009.4 -9.9 -9.999 -99.9 -99.99 -9.99
2018/07/18 04:30 EDT    1.23   1.74   12  308   15  76.8 -99.9 1009.3 -9.9 -9.999 -99.9 -99.99 -9.99
2018/07/18 04:36 EDT    1.15   1.73   12  309   17  76.6 -99.9 1009.4 -9.9 -9.999 -99.9 -99.99 -9.99
2018/07/18 04:42 EDT    1.07   1.64   11  308   15  77.0 -99.9 1009.5 -9.9 -9.999 -99.9 -99.99 -9.99
2018/07/18 04:48 EDT    1.00   1.59   13  317   15  77.0 -99.9 1009.6 -9.9 -9.999 -99.9 -99.99 -9.99
2018/07/18 04:54 EDT    0.92   1.51   13  318   16  77.0 -99.9 1009.6 -9.9 -9.999 -99.9 -99.99 -9.99
2018/07/18 05:00 EDT    0.84   1.41   14  324   16  76.8 -99.9 1009.7 -9.9 -9.999 -99.9 -99.99 -9.99
2018/07/18 05:06 EDT    0.77   1.36   14  320   15  77.0 -99.9 1009.8 -9.9 -9.999 -99.9 -99.99 -9.99
2018/07/18 05:12 EDT    0.70   1.32   14  325   16  77.0 -99.9 1009.8 -9.9 -9.999 -99.9 -99.99 -9.99
2018/07/18 05:18 EDT    0.63   1.30   14  327   16  77.0 -99.9 1009.9 -9.9 -9.999 -99.9 -99.99 -9.99
2018/07/18 05:24 EDT    0.56   1.25   14  331   16  77.2 -99.9 1009.9 -9.9 -9.999 -99.9 -99.99 -9.99
2018/07/18 05:30 EDT    0.50   1.14   14  339   15  77.2 -99.9 1010.1 -9.9 -9.999 -99.9 -99.99 -9.99
2018/07/18 05:36 EDT    0.44   1.10   15  346   17  77.2 -99.9 1010.0 -9.9 -9.999 -99.9 -99.99 -9.99
2018/07/18 05:42 EDT    0.38   1.04   15  345   17  77.2 -99.9 1010.1 -9.9 -9.999 -99.9 -99.99 -9.99
2018/07/18 05:48 EDT    0.32   0.98   15  342   16  77.0 -99.9 1010.2 -9.9 -9.999 -99.9 -99.99 -9.99
2018/07/18 05:54 EDT    0.27   0.90   14  344   17  76.8 -99.9 1010.4 -9.9 -9.999 -99.9 -99.99 -9.99
2018/07/18 06:00 EDT    0.22   0.90   15  337   17  76.8 -99.9 1010.5 -9.9 -9.999 -99.9 -99.99 -9.99
2018/07/18 06:06 EDT    0.17   0.85   15  336   16  76.6 -99.9 1010.6 -9.9 -9.999 -99.9 -99.99 -9.99
2018/07/18 06:12 EDT    0.13   0.82   14  340   15  76.6 -99.9 1010.7 -9.9 -9.999 -99.9 -99.99 -9.99
2018/07/18 06:18 EDT    0.09   0.79   12  340   15  76.6 -99.9 1010.8 -9.9 -9.999 -99.9 -99.99 -9.99
2018/07/18 06:24 EDT    0.05   0.76   11  340   14  76.8 -99.9 1010.9 -9.9 -9.999 -99.9 -99.99 -9.99
2018/07/18 06:30 EDT    0.02   0.72   11  343   13  76.8 -99.9 1010.9 -9.9 -9.999 -99.9 -99.99 -9.99
2018/07/18 06:36 EDT   -0.01   0.67   12  350   14  77.0 -99.9 1010.8 -9.9 -9.999 -99.9 -99.99 -9.99
2018/07/18 06:42 EDT   -0.04   0.64   13  359   15  77.2 -99.9 1010.9 -9.9 -9.999 -99.9 -99.99 -9.99
2018/07/18 06:48 EDT   -0.06   0.59   13    1   16  77.5 -99.9 1011.0 -9.9 -9.999 -99.9 -99.99 -9.99
2018/07/18 06:54 EDT   -0.08   0.58   15    5   17  77.7 -99.9 1011.1 -9.9 -9.999 -99.9 -99.99 -9.99
2018/07/18 07:00 EDT   -0.09   0.56   15  357   18  77.5 -99.9 1011.1 -9.9 -9.999 -99.9 -99.99 -9.99
2018/07/18 07:06 EDT   -0.11   0.64   17  355   18  77.5 -99.9 1011.2 -9.9 -9.999 -99.9 -99.99 -9.99
2018/07/18 07:12 EDT   -0.11   0.61   16  354   19  77.4 -99.9 1011.4 -9.9 -9.999 -99.9 -99.99 -9.99
2018/07/18 07:18 EDT   -0.12   0.60   18  353   19  77.2 -99.9 1011.4 -9.9 -9.999 -99.9 -99.99 -9.99
2018/07/18 07:24 EDT   -0.12   0.62   18    6   20  77.4 -99.9 1011.5 -9.9 -9.999 -99.9 -99.99 -9.99
2018/07/18 07:30 EDT   -0.11   0.64   17    5   18  77.5 -99.9 1011.5 -9.9 -9.999 -99.9 -99.99 -9.99
2018/07/18 07:36 EDT   -0.11   0.65   17    7   20  77.4 -99.9 1011.6 -9.9 -9.999 -99.9 -99.99 -9.99
2018/07/18 07:42 EDT   -0.10   0.62   16    7   19  77.5 -99.9 1011.7 -9.9 -9.999 -99.9 -99.99 -9.99
2018/07/18 07:48 EDT   -0.08   0.71   17    5   19  77.4 -99.9 1011.8 -9.9 -9.999 -99.9 -99.99 -9.99
2018/07/18 07:54 EDT   -0.06   0.75   17    9   19  77.4 -99.9 1011.8 -9.9 -9.999 -99.9 -99.99 -9.99
2018/07/18 08:00 EDT   -0.04   0.74   17    3   18  77.5 -99.9 1011.8 -9.9 -9.999 -99.9 -99.99 -9.99
2018/07/18 08:06 EDT   -0.01   0.76   17    3   20  77.5 -99.9 1011.8 -9.9 -9.999 -99.9 -99.99 -9.99
2018/07/18 08:12 EDT    0.02   0.83   19   11   21  77.9 -99.9 1011.9 -9.9 -9.999 -99.9 -99.99 -9.99
2018/07/18 08:18 EDT    0.05   0.86   19   12   20  78.1 -99.9 1011.9 -9.9 -9.999 -99.9 -99.99 -9.99
2018/07/18 08:24 EDT    0.09   0.92   19    6   21  78.1 -99.9 1012.0 -9.9 -9.999 -99.9 -99.99 -9.99
2018/07/18 08:30 EDT    0.13   0.90   18   11   21  78.3 -99.9 1012.1 -9.9 -9.999 -99.9 -99.99 -9.99
2018/07/18 08:36 EDT    0.17   0.98   18   12   21  78.3 -99.9 1012.2 -9.9 -9.999 -99.9 -99.99 -9.99
2018/07/18 08:42 EDT    0.22   1.02   18   18   21  78.1 -99.9 1012.3 -9.9 -9.999 -99.9 -99.99 -9.99
2018/07/18 08:48 EDT    0.27   1.09   18   16   20  78.1 -99.9 1012.3 -9.9 -9.999 -99.9 -99.99 -9.99
2018/07/18 08:54 EDT    0.32   1.16   17   10   20  77.9 -99.9 1012.3 -9.9 -9.999 -99.9 -99.99 -9.99
2018/07/18 09:00 EDT    0.38   1.18   18    7   21  77.9 -99.9 1012.3 -9.9 -9.999 -99.9 -99.99 -9.99
2018/07/18 09:06 EDT    0.43   1.26   17    6   20  77.9 -99.9 1012.3 -9.9 -9.999 -99.9 -99.99 -9.99
2018/07/18 09:12 EDT    0.49   1.30   19    8   20  77.9 -99.9 1012.2 -9.9 -9.999 -99.9 -99.99 -9.99
2018/07/18 09:18 EDT    0.56   1.39   17    7   19  77.9 -99.9 1012.3 -9.9 -9.999 -99.9 -99.99 -9.99
2018/07/18 09:24 EDT    0.62   1.47   17   10   19  77.9 -99.9 1012.4 -9.9 -9.999 -99.9 -99.99 -9.99
2018/07/18 09:30 EDT    0.69   1.58   16   12   19  77.9 -99.9 1012.3 -9.9 -9.999 -99.9 -99.99 -9.99
2018/07/18 09:36 EDT    0.76   1.57   16    4   18  77.7 -99.9 1012.4 -9.9 -9.999 -99.9 -99.99 -9.99
2018/07/18 09:42 EDT    0.83   1.65   16    2   17  77.7 -99.9 1012.3 -9.9 -9.999 -99.9 -99.99 -9.99
2018/07/18 09:48 EDT    0.91   1.71   16    7   17  77.7 -99.9 1012.3 -9.9 -9.999 -99.9 -99.99 -9.99
2018/07/18 09:54 EDT    0.98   1.78   16   12   18  77.7 -99.9 1012.3 -9.9 -9.999 -99.9 -99.99 -9.99
2018/07/18 10:00 EDT    1.06   1.79   16    4   17  77.9 -99.9 1012.2 -9.9 -9.999 -99.9 -99.99 -9.99
2018/07/18 10:06 EDT    1.14   1.87   16    8   17  77.9 -99.9 1012.2 -9.9 -9.999 -99.9 -99.99 -9.99
2018/07/18 10:12 EDT    1.22   1.96   15    7   17  77.9 -99.9 1012.2 -9.9 -9.999 -99.9 -99.99 -9.99
2018/07/18 10:18 EDT    1.30   2.00   16    8   17  78.1 -99.9 1012.2 -9.9 -9.999 -99.9 -99.99 -9.99
2018/07/18 10:24 EDT    1.38   2.11   14    5   17  78.3 -99.9 1012.2 -9.9 -9.999 -99.9 -99.99 -9.99
2018/07/18 10:30 EDT    1.46   2.20   15    6   17  78.3 -99.9 1012.2 -9.9 -9.999 -99.9 -99.99 -9.99
2018/07/18 10:36 EDT    1.54   2.34   15    5   17  78.3 -99.9 1012.2 -9.9 -9.999 -99.9 -99.99 -9.99
2018/07/18 10:42 EDT    1.62   2.40   14    9   17  78.3 -99.9 1012.2 -9.9 -9.999 -99.9 -99.99 -9.99
2018/07/18 10:48 EDT    1.70   2.43   14    8   16  78.3 -99.9 1012.3 -9.9 -9.999 -99.9 -99.99 -9.99
2018/07/18 10:54 EDT    1.77   2.53   15    6   17  78.1 -99.9 1012.4 -9.9 -9.999 -99.9 -99.99 -9.99
2018/07/18 11:00 EDT    1.85   2.56   15    4   17  78.3 -99.9 1012.3 -9.9 -9.999 -99.9 -99.99 -9.99
2018/07/18 11:06 EDT    1.93   2.69   15    6   17  78.3 -99.9 1012.3 -9.9 -9.999 -99.9 -99.99 -9.99
2018/07/18 11:12 EDT    2.00   2.78   15    5   16  78.3 -99.9 1012.4 -9.9 -9.999 -99.9 -99.99 -9.99
2018/07/18 11:18 EDT    2.08   2.89   15    9   16  78.3 -99.9 1012.4 -9.9 -9.999 -99.9 -99.99 -9.99
2018/07/18 11:24 EDT    2.15   2.97   13    7   16  78.3 -99.9 1012.5 -9.9 -9.999 -99.9 -99.99 -9.99
2018/07/18 11:30 EDT    2.22   3.08   14    2   17  78.3 -99.9 1012.6 -9.9 -9.999 -99.9 -99.99 -9.99
2018/07/18 11:36 EDT    2.29   3.23   13    3   16  78.3 -99.9 1012.7 -9.9 -9.999 -99.9 -99.99 -9.99
2018/07/18 11:42 EDT    2.35   3.15   13  354   15  78.4 -99.9 1012.7 -9.9 -9.999 -99.9 -99.99 -9.99
2018/07/18 11:48 EDT    2.42   3.21   13    0   15  78.4 -99.9 1012.7 -9.9 -9.999 -99.9 -99.99 -9.99
2018/07/18 11:54 EDT    2.48   3.33   14    4   15  78.3 -99.9 1012.7 -9.9 -9.999 -99.9 -99.99 -9.99
2018/07/18 12:00 EDT    2.53   3.47   13    6   14  78.4 -99.9 1012.7 -9.9 -9.999 -99.9 -99.99 -9.99
2018/07/18 12:06 EDT    2.59   3.44   13    4   15  78.3 -99.9 1012.7 -9.9 -9.999 -99.9 -99.99 -9.99
2018/07/18 12:12 EDT    2.64   3.55   13  355   14  78.1 -99.9 1012.8 -9.9 -9.999 -99.9 -99.99 -9.99
2018/07/18 12:18 EDT    2.69   3.51   12    2   14  78.1 -99.9 1012.8 -9.9 -9.999 -99.9 -99.99 -9.99
2018/07/18 12:24 EDT    2.73   3.56   13    8   15  78.3 -99.9 1012.7 -9.9 -9.999 -99.9 -99.99 -9.99
2018/07/18 12:30 EDT    2.77   3.61   14    8   15  78.3 -99.9 1012.6 -9.9 -9.999 -99.9 -99.99 -9.99
2018/07/18 12:36 EDT    2.81   3.71   14    3   16  78.1 -99.9 1012.6 -9.9 -9.999 -99.9 -99.99 -9.99
2018/07/18 12:42 EDT    2.84   3.76   13    7   16  78.1 -99.9 1012.5 -9.9 -9.999 -99.9 -99.99 -9.99
2018/07/18 12:48 EDT    2.87   3.77   13    5   15  78.1 -99.9 1012.6 -9.9 -9.999 -99.9 -99.99 -9.99
2018/07/18 12:54 EDT    2.90   3.77   13    5   16  78.1 -99.9 1012.6 -9.9 -9.999 -99.9 -99.99 -9.99
2018/07/18 13:00 EDT    2.92   3.72   14   10   15  78.1 -99.9 1012.6 -9.9 -9.999 -99.9 -99.99 -9.99
2018/07/18 13:06 EDT    2.94   3.73   13    5   15  78.1 -99.9 1012.6 -9.9 -9.999 -99.9 -99.99 -9.99
2018/07/18 13:12 EDT    2.96   3.76   13    6   14  78.1 -99.9 1012.6 -9.9 -9.999 -99.9 -99.99 -9.99
2018/07/18 13:18 EDT    2.97   3.80   12    5   14  78.3 -99.9 1012.6 -9.9 -9.999 -99.9 -99.99 -9.99
2018/07/18 13:24 EDT    2.98   3.74   13  355   15  78.1 -99.9 1012.6 -9.9 -9.999 -99.9 -99.99 -9.99
2018/07/18 13:30 EDT    2.99   3.77   13    4   16  78.1 -99.9 1012.6 -9.9 -9.999 -99.9 -99.99 -9.99
2018/07/18 13:36 EDT    2.99   3.75   14    5   16  77.9 -99.9 1012.6 -9.9 -9.999 -99.9 -99.99 -9.99
2018/07/18 13:42 EDT    2.99   3.73   13  358   16  78.3 -99.9 1012.7 -9.9 -9.999 -99.9 -99.99 -9.99
2018/07/18 13:48 EDT    2.99   3.70   14  353   15  78.1 -99.9 1012.7 -9.9 -9.999 -99.9 -99.99 -9.99
2018/07/18 13:54 EDT    2.98   3.73   13    9   15  78.3 -99.9 1012.7 -9.9 -9.999 -99.9 -99.99 -9.99
2018/07/18 14:00 EDT    2.98   3.73   13    8   15  78.3 -99.9 1012.6 -9.9 -9.999 -99.9 -99.99 -9.99
2018/07/18 14:06 EDT    2.96   3.72   13   10   15  78.3 -99.9 1012.6 -9.9 -9.999 -99.9 -99.99 -9.99
2018/07/18 14:12 EDT    2.95   3.69   13    7   15  78.4 -99.9 1012.7 -9.9 -9.999 -99.9 -99.99 -9.99
2018/07/18 14:18 EDT    2.93   3.68   13   13   14  78.3 -99.9 1012.6 -9.9 -9.999 -99.9 -99.99 -9.99
2018/07/18 14:24 EDT    2.91   3.69   13   13   14  78.4 -99.9 1012.6 -9.9 -9.999 -99.9 -99.99 -9.99
2018/07/18 14:30 EDT    2.89   3.60   11   11   14  78.4 -99.9 1012.6 -9.9 -9.999 -99.9 -99.99 -9.99
2018/07/18 14:36 EDT    2.86   3.60   12   22   14  78.4 -99.9 1012.7 -9.9 -9.999 -99.9 -99.99 -9.99
2018/07/18 14:42 EDT    2.83   3.51   12   25   14  78.6 -99.9 1012.7 -9.9 -9.999 -99.9 -99.99 -9.99
2018/07/18 14:48 EDT    2.80   3.46   12   14   13  78.6 -99.9 1012.7 -9.9 -9.999 -99.9 -99.99 -9.99
2018/07/18 14:54 EDT    2.77   3.45   13   14   15  78.8 -99.9 1012.7 -9.9 -9.999 -99.9 -99.99 -9.99
2018/07/18 15:00 EDT    2.73   3.45   12   12   13  78.8 -99.9 1012.8 -9.9 -9.999 -99.9 -99.99 -9.99
2018/07/18 15:06 EDT    2.69   3.37   12   12   13  79.0 -99.9 1012.8 -9.9 -9.999 -99.9 -99.99 -9.99
2018/07/18 15:12 EDT    2.64   3.33   11   19   12  79.2 -99.9 1012.8 -9.9 -9.999 -99.9 -99.99 -9.99
2018/07/18 15:18 EDT    2.60   3.29   12   23   13  79.2 -99.9 1012.8 -9.9 -9.999 -99.9 -99.99 -9.99
2018/07/18 15:24 EDT    2.55   3.24   11   20   13  79.3 -99.9 1012.7 -9.9 -9.999 -99.9 -99.99 -9.99
2018/07/18 15:30 EDT    2.50   3.18   11   25   13  79.3 -99.9 1012.7 -9.9 -9.999 -99.9 -99.99 -9.99
2018/07/18 15:36 EDT    2.44   3.12   11   26   12  79.5 -99.9 1012.7 -9.9 -9.999 -99.9 -99.99 -9.99
2018/07/18 15:42 EDT    2.38   3.12   11   20   12  79.5 -99.9 1012.7 -9.9 -9.999 -99.9 -99.99 -9.99
2018/07/18 15:48 EDT    2.32   3.05   11   30   12  79.5 -99.9 1012.7 -9.9 -9.999 -99.9 -99.99 -9.99
2018/07/18 15:54 EDT    2.26   2.98   10   23   12  79.7 -99.9 1012.6 -9.9 -9.999 -99.9 -99.99 -9.99
2018/07/18 16:00 EDT    2.20   2.92   10   24   12  79.9 -99.9 1012.7 -9.9 -9.999 -99.9 -99.99 -9.99
2018/07/18 16:06 EDT    2.13   2.86   10   28   11  79.9 -99.9 1012.6 -9.9 -9.999 -99.9 -99.99 -9.99
2018/07/18 16:12 EDT    2.06   2.79   10   25   12  79.9 -99.9 1012.5 -9.9 -9.999 -99.9 -99.99 -9.99
2018/07/18 16:18 EDT    1.99   2.73    9   28   11  79.9 -99.9 1012.5 -9.9 -9.999 -99.9 -99.99 -9.99
2018/07/18 16:24 EDT    1.92   2.65    9   22   11  80.1 -99.9 1012.5 -9.9 -9.999 -99.9 -99.99 -9.99
2018/07/18 16:30 EDT    1.85   2.60   11   22   12  80.1 -99.9 1012.4 -9.9 -9.999 -99.9 -99.99 -9.99
2018/07/18 16:36 EDT    1.78   2.55   11   20   12  80.2 -99.9 1012.3 -9.9 -9.999 -99.9 -99.99 -9.99
2018/07/18 16:42 EDT    1.70   2.47   10   21   11  80.6 -99.9 1012.3 -9.9 -9.999 -99.9 -99.99 -9.99
2018/07/18 16:48 EDT    1.63   2.43   12   16   13  80.6 -99.9 1012.2 -9.9 -9.999 -99.9 -99.99 -9.99
2018/07/18 16:54 EDT    1.55   2.35   12   19   13  80.6 -99.9 1012.2 -9.9 -9.999 -99.9 -99.99 -9.99
2018/07/18 17:00 EDT    1.48   2.25   12   20   14  80.6 -99.9 1012.2 -9.9 -9.999 -99.9 -99.99 -9.99
2018/07/18 17:06 EDT    1.41   2.19   12   19   14  80.8 -99.9 1012.1 -9.9 -9.999 -99.9 -99.99 -9.99
2018/07/18 17:12 EDT    1.33   2.08   12   19   14  81.0 -99.9 1012.1 -9.9 -9.999 -99.9 -99.99 -9.99
2018/07/18 17:18 EDT    1.26   2.02   12   20   14  81.1 -99.9 1012.1 -9.9 -9.999 -99.9 -99.99 -9.99
2018/07/18 17:24 EDT    1.19   1.94   12   17   14  81.1 -99.9 1012.1 -9.9 -9.999 -99.9 -99.99 -9.99
2018/07/18 17:30 EDT    1.12   1.90   12   20   15  81.1 -99.9 1012.2 -9.9 -9.999 -99.9 -99.99 -9.99
2018/07/18 17:36 EDT    1.05   1.80   12   16   15  81.0 -99.9 1012.2 -9.9 -9.999 -99.9 -99.99 -9.99
2018/07/18 17:42 EDT    0.98   1.74   12   21   13  81.0 -99.9 1012.2 -9.9 -9.999 -99.9 -99.99 -9.99
2018/07/18 17:48 EDT    0.92   1.68   12   22   14  80.8 -99.9 1012.2 -9.9 -9.999 -99.9 -99.99 -9.99
2018/07/18 17:54 EDT    0.86   1.56   12   22   14  81.0 -99.9 1012.3 -9.9 -9.999 -99.9 -99.99 -9.99
2018/07/18 18:00 EDT    0.80   1.49   13   19   14  81.0 -99.9 1012.3 -9.9 -9.999 -99.9 -99.99 -9.99
2018/07/18 18:06 EDT    0.74   1.42   11   20   13  81.1 -99.9 1012.4 -9.9 -9.999 -99.9 -99.99 -9.99
2018/07/18 18:12 EDT    0.68   1.36   11   24   13  81.3 -99.9 1012.5 -9.9 -9.999 -99.9 -99.99 -9.99
2018/07/18 18:18 EDT    0.63   1.29   12   21   14  81.3 -99.9 1012.5 -9.9 -9.999 -99.9 -99.99 -9.99
2018/07/18 18:24 EDT    0.58   1.25   11   19   13  81.5 -99.9 1012.7 -9.9 -9.999 -99.9 -99.99 -9.99
2018/07/18 18:30 EDT    0.53   1.24   11   21   12  81.7 -99.9 1012.7 -9.9 -9.999 -99.9 -99.99 -9.99
2018/07/18 18:36 EDT    0.48   1.19   11   19   12  81.5 -99.9 1012.7 -9.9 -9.999 -99.9 -99.99 -9.99
2018/07/18 18:42 EDT    0.44   1.15   11   15   12  81.5 -99.9 1012.8 -9.9 -9.999 -99.9 -99.99 -9.99
2018/07/18 18:48 EDT    0.40   1.12   11   23   12  81.5 -99.9 1012.8 -9.9 -9.999 -99.9 -99.99 -9.99
2018/07/18 18:54 EDT    0.37   1.04   11   21   12  81.7 -99.9 1012.8 -9.9 -9.999 -99.9 -99.99 -9.99
2018/07/18 19:00 EDT    0.33   1.05   11   25   13  81.9 -99.9 1012.8 -9.9 -9.999 -99.9 -99.99 -9.99
2018/07/18 19:06 EDT    0.30   0.99   11   22   12  81.9 -99.9 1012.7 -9.9 -9.999 -99.9 -99.99 -9.99
2018/07/18 19:12 EDT    0.28   0.96   11   32   12  81.9 -99.9 1012.7 -9.9 -9.999 -99.9 -99.99 -9.99
2018/07/18 19:18 EDT    0.25   0.96   10   34   12  82.0 -99.9 1012.7 -9.9 -9.999 -99.9 -99.99 -9.99
2018/07/18 19:24 EDT    0.23   0.94   10   28   11  82.0 -99.9 1012.8 -9.9 -9.999 -99.9 -99.99 -9.99
2018/07/18 19:30 EDT    0.22   0.92   11   29   12  82.0 -99.9 1012.9 -9.9 -9.999 -99.9 -99.99 -9.99
2018/07/18 19:36 EDT    0.20   0.90   10   34   13  81.7 -99.9 1012.9 -9.9 -9.999 -99.9 -99.99 -9.99
2018/07/18 19:42 EDT    0.19   0.90   10   47   12  81.9 -99.9 1012.9 -9.9 -9.999 -99.9 -99.99 -9.99
2018/07/18 19:48 EDT    0.19   0.90   10   45   11  81.9 -99.9 1013.0 -9.9 -9.999 -99.9 -99.99 -9.99
2018/07/18 19:54 EDT    0.18   0.88   10   42   11  81.9 -99.9 1013.0 -9.9 -9.999 -99.9 -99.99 -9.99
2018/07/18 20:00 EDT    0.18   0.90   11   40   12  81.7 -99.9 1013.0 -9.9 -9.999 -99.9 -99.99 -9.99
2018/07/18 20:06 EDT    0.19   0.92   11   52   11  81.5 -99.9 1013.1 -9.9 -9.999 -99.9 -99.99 -9.99
2018/07/18 20:12 EDT    0.19   0.90   10   53   11  81.5 -99.9 1013.2 -9.9 -9.999 -99.9 -99.99 -9.99
2018/07/18 20:18 EDT    0.20   0.92   10   60   11  81.5 -99.9 1013.1 -9.9 -9.999 -99.9 -99.99 -9.99
2018/07/18 20:24 EDT    0.22   0.91    9   56   11  81.5 -99.9 1013.2 -9.9 -9.999 -99.9 -99.99 -9.99
2018/07/18 20:30 EDT    0.23   0.91    7   60    9  81.3 -99.9 1013.1 -9.9 -9.999 -99.9 -99.99 -9.99
2018/07/18 20:36 EDT    0.25   0.93    7   60    9  81.1 -99.9 1013.0 -9.9 -9.999 -99.9 -99.99 -9.99
2018/07/18 20:42 EDT    0.28   0.94    8   65    9  81.1 -99.9 1013.0 -9.9 -9.999 -99.9 -99.99 -9.99
2018/07/18 20:48 EDT    0.31   0.98    7   60   10  81.0 -99.9 1013.1 -9.9 -9.999 -99.9 -99.99 -9.99
2018/07/18 20:54 EDT    0.34   0.99    9   58   11  80.8 -99.9 1013.1 -9.9 -9.999 -99.9 -99.99 -9.99
2018/07/18 21:00 EDT    0.37   1.01   11   54   12  80.8 -99.9 1013.0 -9.9 -9.999 -99.9 -99.99 -9.99
2018/07/18 21:06 EDT    0.41   1.03   10   51   12  80.8 -99.9 1013.1 -9.9 -9.999 -99.9 -99.99 -9.99
2018/07/18 21:12 EDT    0.45   1.09    8   52   10  80.8 -99.9 1013.2 -9.9 -9.999 -99.9 -99.99 -9.99
2018/07/18 21:18 EDT    0.49   1.12    8   49    9  80.6 -99.9 1013.3 -9.9 -9.999 -99.9 -99.99 -9.99
2018/07/18 21:24 EDT    0.54   1.15    8   50   10  80.6 -99.9 1013.3 -9.9 -9.999 -99.9 -99.99 -9.99
2018/07/18 21:30 EDT    0.58   1.22    8   42    9  80.4 -99.9 1013.3 -9.9 -9.999 -99.9 -99.99 -9.99
2018/07/18 21:36 EDT    0.63   1.25    8   38    9  80.6 -99.9 1013.4 -9.9 -9.999 -99.9 -99.99 -9.99
2018/07/18 21:42 EDT    0.69   1.29    8   36   10  80.4 -99.9 1013.4 -9.9 -9.999 -99.9 -99.99 -9.99
2018/07/18 21:48 EDT    0.74   1.35    8   38    9  80.2 -99.9 1013.5 -9.9 -9.999 -99.9 -99.99 -9.99
2018/07/18 21:54 EDT    0.80   1.42    7   35    8  80.2 -99.9 1013.5 -9.9 -9.999 -99.9 -99.99 -9.99
2018/07/18 22:00 EDT    0.86   1.45    7   33    8  80.1 -99.9 1013.5 -9.9 -9.999 -99.9 -99.99 -9.99
2018/07/18 22:06 EDT    0.92   1.55    6   31    7  80.1 -99.9 1013.6 -9.9 -9.999 -99.9 -99.99 -9.99
2018/07/18 22:12 EDT    0.98   1.58    6   30    7  79.9 -99.9 1013.6 -9.9 -9.999 -99.9 -99.99 -9.99
2018/07/18 22:18 EDT    1.05   1.63 -999 -999 -999 -99.9 -99.9 -999.9 -9.9 -9.999 -99.9 -99.99 -9.99
2018/07/18 22:24 EDT    1.11   1.68    6   28    6  79.9 -99.9 1013.8 -9.9 -9.999 -99.9 -99.99 -9.99
2018/07/18 22:30 EDT    1.18   1.80    5   31    6  79.9 -99.9 1013.8 -9.9 -9.999 -99.9 -99.99 -9.99
2018/07/18 22:36 EDT    1.25   1.84    6   34    7  79.9 -99.9 1013.9 -9.9 -9.999 -99.9 -99.99 -9.99
2018/07/18 22:42 EDT    1.32   1.95    5   38    7  79.7 -99.9 1014.0 -9.9 -9.999 -99.9 -99.99 -9.99
2018/07/18 22:48 EDT    1.39   2.01    4   38    5  79.7 -99.9 1014.1 -9.9 -9.999 -99.9 -99.99 -9.99
2018/07/18 22:54 EDT    1.45   2.08    4   34    5  79.7 -99.9 1014.2 -9.9 -9.999 -99.9 -99.99 -9.99
2018/07/18 23:00 EDT    1.52   2.19    4   44    5  79.7 -99.9 1014.2 -9.9 -9.999 -99.9 -99.99 -9.99
2018/07/18 23:06 EDT    1.59   2.24    4   43    5  79.7 -99.9 1014.1 -9.9 -9.999 -99.9 -99.99 -9.99
2018/07/18 23:12 EDT    1.66   2.30    4   45    4  79.7 -99.9 1014.1 -9.9 -9.999 -99.9 -99.99 -9.99
2018/07/18 23:18 EDT    1.73   2.38    4   45    5  79.5 -99.9 1014.2 -9.9 -9.999 -99.9 -99.99 -9.99
2018/07/18 23:24 EDT    1.80   2.45    5   54    5  79.7 -99.9 1014.2 -9.9 -9.999 -99.9 -99.99 -9.99
2018/07/18 23:30 EDT    1.86   2.53    4   50    6  79.5 -99.9 1014.3 -9.9 -9.999 -99.9 -99.99 -9.99
2018/07/18 23:36 EDT    1.93   2.62    3   46    5  79.5 -99.9 1014.3 -9.9 -9.999 -99.9 -99.99 -9.99
2018/07/18 23:42 EDT    1.99   2.67    4   47    4  79.5 -99.9 1014.3 -9.9 -9.999 -99.9 -99.99 -9.99
2018/07/18 23:48 EDT    2.05   2.73    4   43    4  79.3 -99.9 1014.3 -9.9 -9.999 -99.9 -99.99 -9.99
2018/07/18 23:54 EDT    2.11   2.81    4   56    4  79.3 -99.9 1014.2 -9.9 -9.999 -99.9 -99.99 -9.99
2018/07/19 00:00 EDT    2.17   2.87    4   46    4  79.3 -99.9 1014.2 -9.9 -9.999 -99.9 -99.99 -9.99
2018/07/19 00:06 EDT    2.23   2.89    4   37    5  79.3 -99.9 1014.2 -9.9 -9.999 -99.9 -99.99 -9.99
2018/07/19 00:12 EDT    2.28   2.97    4   35    4  79.3 -99.9 1014.3 -9.9 -9.999 -99.9 -99.99 -9.99
2018/07/19 00:18 EDT    2.33   3.00    4   25    5  79.3 -99.9 1014.3 -9.9 -9.999 -99.9 -99.99 -9.99
2018/07/19 00:24 EDT    2.38   3.06    4   26    5  79.3 -99.9 1014.3 -9.9 -9.999 -99.9 -99.99 -9.99
2018/07/19 00:30 EDT    2.43   3.16    4   21    5  79.3 -99.9 1014.3 -9.9 -9.999 -99.9 -99.99 -9.99
2018/07/19 00:36 EDT    2.47   3.16    4   30    5  79.5 -99.9 1014.4 -9.9 -9.999 -99.9 -99.99 -9.99
2018/07/19 00:42 EDT    2.51   3.20    4   19    5  79.3 -99.9 1014.4 -9.9 -9.999 -99.9 -99.99 -9.99
2018/07/19 00:48 EDT    2.55   3.22    4   30    4  79.3 -99.9 1014.5 -9.9 -9.999 -99.9 -99.99 -9.99
2018/07/19 00:54 EDT    2.58   3.26    4   32    4  79.5 -99.9 1014.6 -9.9 -9.999 -99.9 -99.99 -9.99
2018/07/19 01:00 EDT    2.61   3.28    4   29    4  79.3 -99.9 1014.6 -9.9 -9.999 -99.9 -99.99 -9.99
2018/07/19 01:06 EDT    2.64   3.30    4   24    5  79.3 -99.9 1014.7 -9.9 -9.999 -99.9 -99.99 -9.99
2018/07/19 01:12 EDT    2.66   3.32    4   36    5  79.3 -99.9 1014.7 -9.9 -9.999 -99.9 -99.99 -9.99
2018/07/19 01:18 EDT    2.68   3.33    4    5    4  79.2 -99.9 1014.6 -9.9 -9.999 -99.9 -99.99 -9.99
2018/07/19 01:24 EDT    2.70   3.34    4    5    4  79.2 -99.9 1014.7 -9.9 -9.999 -99.9 -99.99 -9.99
2018/07/19 01:30 EDT    2.72   3.38    4   16    4  79.2 -99.9 1014.6 -9.9 -9.999 -99.9 -99.99 -9.99
2018/07/19 01:36 EDT    2.73   3.37    3   22    4  79.2 -99.9 1014.7 -9.9 -9.999 -99.9 -99.99 -9.99
2018/07/19 01:42 EDT    2.74   3.37    3   12    4  79.0 -99.9 1014.7 -9.9 -9.999 -99.9 -99.99 -9.99
2018/07/19 01:48 EDT    2.74   3.37    3    6    3  79.0 -99.9 1014.8 -9.9 -9.999 -99.9 -99.99 -9.99
2018/07/19 01:54 EDT    2.74   3.40    3  350    3  78.8 -99.9 1014.8 -9.9 -9.999 -99.9 -99.99 -9.99
2018/07/19 02:00 EDT    2.74   3.40    3  358    3  78.8 -99.9 1014.8 -9.9 -9.999 -99.9 -99.99 -9.99
2018/07/19 02:06 EDT    2.74   3.41    3  338    4  78.8 -99.9 1014.9 -9.9 -9.999 -99.9 -99.99 -9.99
2018/07/19 02:12 EDT    2.74   3.39    2  348    3  78.6 -99.9 1014.9 -9.9 -9.999 -99.9 -99.99 -9.99
2018/07/19 02:18 EDT    2.73   3.38    2  350    3  78.6 -99.9 1014.8 -9.9 -9.999 -99.9 -99.99 -9.99
2018/07/19 02:24 EDT    2.72   3.38    3  321    4  78.6 -99.9 1014.8 -9.9 -9.999 -99.9 -99.99 -9.99
2018/07/19 02:30 EDT    2.70   3.36    4  308    5  78.6 -99.9 1014.8 -9.9 -9.999 -99.9 -99.99 -9.99
2018/07/19 02:36 EDT    2.69   3.37    4  311    4  78.8 -99.9 1014.9 -9.9 -9.999 -99.9 -99.99 -9.99
2018/07/19 02:42 EDT    2.67   3.32    6  310    7  78.6 -99.9 1014.9 -9.9 -9.999 -99.9 -99.99 -9.99
2018/07/19 02:48 EDT    2.64   3.29    7  310    8  78.6 -99.9 1014.9 -9.9 -9.999 -99.9 -99.99 -9.99
2018/07/19 02:54 EDT    2.62   3.30    6  306    7  78.6 -99.9 1014.9 -9.9 -9.999 -99.9 -99.99 -9.99
2018/07/19 03:00 EDT    2.59   3.25    6  311    7  78.6 -99.9 1014.8 -9.9 -9.999 -99.9 -99.99 -9.99
2018/07/19 03:06 EDT    2.56   3.23    6  303    7  78.6 -99.9 1014.8 -9.9 -9.999 -99.9 -99.99 -9.99
2018/07/19 03:12 EDT    2.53   3.20    7  292    7  78.6 -99.9 1014.7 -9.9 -9.999 -99.9 -99.99 -9.99
2018/07/19 03:18 EDT    2.49   3.18    7  301    8  78.4 -99.9 1014.7 -9.9 -9.999 -99.9 -99.99 -9.99
2018/07/19 03:24 EDT    2.46   3.14    7  306    9  78.4 -99.9 1014.7 -9.9 -9.999 -99.9 -99.99 -9.99
2018/07/19 03:30 EDT    2.42   3.12    7  320    8  78.4 -99.9 1014.7 -9.9 -9.999 -99.9 -99.99 -9.99
2018/07/19 03:36 EDT    2.37   3.07    6  329    7  78.4 -99.9 1014.7 -9.9 -9.999 -99.9 -99.99 -9.99
2018/07/19 03:42 EDT    2.33   3.04    6  326    8  78.3 -99.9 1014.6 -9.9 -9.999 -99.9 -99.99 -9.99
2018/07/19 03:48 EDT    2.28   2.95    6  305    7  78.1 -99.9 1014.6 -9.9 -9.999 -99.9 -99.99 -9.99
2018/07/19 03:54 EDT    2.23   2.94    6  307    7  78.1 -99.9 1014.6 -9.9 -9.999 -99.9 -99.99 -9.99
2018/07/19 04:00 EDT    2.17   2.88    5  309    7  77.9 -99.9 1014.6 -9.9 -9.999 -99.9 -99.99 -9.99
2018/07/19 04:06 EDT    2.12   2.84    5  304    6  77.7 -99.9 1014.6 -9.9 -9.999 -99.9 -99.99 -9.99
2018/07/19 04:12 EDT    2.06   2.79    6  319    6  77.7 -99.9 1014.6 -9.9 -9.999 -99.9 -99.99 -9.99
2018/07/19 04:18 EDT    2.00   2.71    7  313    8  77.7 -99.9 1014.5 -9.9 -9.999 -99.9 -99.99 -9.99
2018/07/19 04:24 EDT    1.94   2.66    6  308    8  77.4 -99.9 1014.5 -9.9 -9.999 -99.9 -99.99 -9.99
2018/07/19 04:30 EDT    1.87   2.61    5  296    6  77.2 -99.9 1014.6 -9.9 -9.999 -99.9 -99.99 -9.99
2018/07/19 04:36 EDT    1.81   2.57    6  308    7  77.2 -99.9 1014.7 -9.9 -9.999 -99.9 -99.99 -9.99
2018/07/19 04:42 EDT    1.74   2.49    7  313    8  77.2 -99.9 1014.7 -9.9 -9.999 -99.9 -99.99 -9.99
2018/07/19 04:48 EDT    1.67   2.42    6  310    7  77.0 -99.9 1014.7 -9.9 -9.999 -99.9 -99.99 -9.99
2018/07/19 04:54 EDT    1.60   2.31    7  316    8  76.8 -99.9 1014.7 -9.9 -9.999 -99.9 -99.99 -9.99
2018/07/19 05:00 EDT    1.53   2.21    7  304    8  76.8 -99.9 1014.7 -9.9 -9.999 -99.9 -99.99 -9.99
2018/07/19 05:06 EDT    1.46   2.17    8  303    9  76.6 -99.9 1014.8 -9.9 -9.999 -99.9 -99.99 -9.99
2018/07/19 05:12 EDT    1.39   2.12    8  302    8  76.6 -99.9 1014.8 -9.9 -9.999 -99.9 -99.99 -9.99
2018/07/19 05:18 EDT    1.31   2.04    7  302    8  76.5 -99.9 1014.8 -9.9 -9.999 -99.9 -99.99 -9.99
2018/07/19 05:24 EDT    1.24   1.94    7  314    8  76.5 -99.9 1014.9 -9.9 -9.999 -99.9 -99.99 -9.99
2018/07/19 05:30 EDT    1.17   1.89    5  313    7  76.6 -99.9 1015.0 -9.9 -9.999 -99.9 -99.99 -9.99
2018/07/19 05:36 EDT    1.10   1.82    5  311    6  76.6 -99.9 1014.9 -9.9 -9.999 -99.9 -99.99 -9.99
2018/07/19 05:42 EDT    1.03   1.76    5  318    7  76.6 -99.9 1015.0 -9.9 -9.999 -99.9 -99.99 -9.99
2018/07/19 05:48 EDT    0.96   1.67    5  307    7  76.8 -99.9 1015.1 -9.9 -9.999 -99.9 -99.99 -9.99
2018/07/19 05:54 EDT    0.89   1.59    5  302    7  76.6 -99.9 1015.1 -9.9 -9.999 -99.9 -99.99 -9.99
2018/07/19 06:00 EDT    0.83   1.55    6  320    7  76.6 -99.9 1015.2 -9.9 -9.999 -99.9 -99.99 -9.99
2018/07/19 06:06 EDT    0.76   1.48    5  332    7  76.8 -99.9 1015.2 -9.9 -9.999 -99.9 -99.99 -9.99
2018/07/19 06:12 EDT    0.70   1.41    5  342    6  76.8 -99.9 1015.3 -9.9 -9.999 -99.9 -99.99 -9.99
2018/07/19 06:18 EDT    0.64   1.35    4  351    6  76.8 -99.9 1015.4 -9.9 -9.999 -99.9 -99.99 -9.99
2018/07/19 06:24 EDT    0.58   1.32    4  349    5  77.0 -99.9 1015.4 -9.9 -9.999 -99.9 -99.99 -9.99
2018/07/19 06:30 EDT    0.53   1.25    4  349    5  77.2 -99.9 1015.5 -9.9 -9.999 -99.9 -99.99 -9.99
2018/07/19 06:36 EDT    0.47   1.19    4    4    6  77.4 -99.9 1015.5 -9.9 -9.999 -99.9 -99.99 -9.99
2018/07/19 06:42 EDT    0.42   1.17    4    3    4  77.5 -99.9 1015.6 -9.9 -9.999 -99.9 -99.99 -9.99
2018/07/19 06:48 EDT    0.37   1.14    2  339    4  77.5 -99.9 1015.6 -9.9 -9.999 -99.9 -99.99 -9.99
2018/07/19 06:54 EDT    0.33   1.07    3  348    4  77.5 -99.9 1015.6 -9.9 -9.999 -99.9 -99.99 -9.99
2018/07/19 07:00 EDT    0.28   1.05    3  329    4  77.7 -99.9 1015.6 -9.9 -9.999 -99.9 -99.99 -9.99
2018/07/19 07:06 EDT    0.24   1.03    3  320    4  77.5 -99.9 1015.7 -9.9 -9.999 -99.9 -99.99 -9.99
2018/07/19 07:12 EDT    0.21   0.98    3  330    4  77.7 -99.9 1015.7 -9.9 -9.999 -99.9 -99.99 -9.99
2018/07/19 07:18 EDT    0.17   0.94    3  348    4  77.7 -99.9 1015.7 -9.9 -9.999 -99.9 -99.99 -9.99
2018/07/19 07:24 EDT    0.14   0.93    3    3    4  77.7 -99.9 1015.8 -9.9 -9.999 -99.9 -99.99 -9.99
2018/07/19 07:30 EDT    0.11   0.93    4  344    4  77.7 -99.9 1015.8 -9.9 -9.999 -99.9 -99.99 -9.99
2018/07/19 07:36 EDT    0.09   0.90    4    9    5  77.5 -99.9 1015.8 -9.9 -9.999 -99.9 -99.99 -9.99
2018/07/19 07:42 EDT    0.07   0.87    5    7    6  77.7 -99.9 1015.8 -9.9 -9.999 -99.9 -99.99 -9.99
2018/07/19 07:48 EDT    0.05   0.85    5    4    6  77.7 -99.9 1015.8 -9.9 -9.999 -99.9 -99.99 -9.99
2018/07/19 07:54 EDT    0.03   0.84    5   26    6  77.7 -99.9 1015.9 -9.9 -9.999 -99.9 -99.99 -9.99
2018/07/19 08:00 EDT    0.02   0.83    5   34    6  77.9 -99.9 1016.0 -9.9 -9.999 -99.9 -99.99 -9.99
2018/07/19 08:06 EDT    0.01   0.83    5   38    6  77.9 -99.9 1016.1 -9.9 -9.999 -99.9 -99.99 -9.99
2018/07/19 08:12 EDT    0.01   0.81    6   47    7  78.1 -99.9 1016.2 -9.9 -9.999 -99.9 -99.99 -9.99
2018/07/19 08:18 EDT    0.01   0.81    5   64    7  78.1 -99.9 1016.2 -9.9 -9.999 -99.9 -99.99 -9.99
2018/07/19 08:24 EDT    0.01   0.80    5   64    7  78.1 -99.9 1016.2 -9.9 -9.999 -99.9 -99.99 -9.99
2018/07/19 08:30 EDT    0.01   0.81    5   48    7  78.1 -99.9 1016.3 -9.9 -9.999 -99.9 -99.99 -9.99
2018/07/19 08:36 EDT    0.02   0.85    5   41    7  77.9 -99.9 1016.4 -9.9 -9.999 -99.9 -99.99 -9.99
2018/07/19 08:42 EDT    0.04   0.84    4   60    5  78.1 -99.9 1016.6 -9.9 -9.999 -99.9 -99.99 -9.99
2018/07/19 08:48 EDT    0.05   0.87    4   62    4  78.3 -99.9 1016.7 -9.9 -9.999 -99.9 -99.99 -9.99
2018/07/19 08:54 EDT    0.07   0.87    4   54    5  78.3 -99.9 1016.8 -9.9 -9.999 -99.9 -99.99 -9.99
2018/07/19 09:00 EDT    0.10   0.89    4   53    5  78.3 -99.9 1016.9 -9.9 -9.999 -99.9 -99.99 -9.99
2018/07/19 09:06 EDT    0.12   0.94    4   48    5  78.3 -99.9 1016.9 -9.9 -9.999 -99.9 -99.99 -9.99
2018/07/19 09:12 EDT    0.15   0.96    5   54    5  78.3 -99.9 1016.9 -9.9 -9.999 -99.9 -99.99 -9.99
2018/07/19 09:18 EDT    0.19   0.97    5   54    6  78.3 -99.9 1016.9 -9.9 -9.999 -99.9 -99.99 -9.99
2018/07/19 09:24 EDT    0.22   1.01    5   55    6  78.3 -99.9 1017.0 -9.9 -9.999 -99.9 -99.99 -9.99
2018/07/19 09:30 EDT    0.26   1.04    5   59    6  78.3 -99.9 1017.1 -9.9 -9.999 -99.9 -99.99 -9.99
2018/07/19 09:36 EDT    0.31   1.08    5   54    6  78.4 -99.9 1017.1 -9.9 -9.999 -99.9 -99.99 -9.99
2018/07/19 09:42 EDT    0.35   1.12    5   57    5  78.6 -99.9 1017.2 -9.9 -9.999 -99.9 -99.99 -9.99
2018/07/19 09:48 EDT    0.40   1.18    5   85    6  79.2 -99.9 1017.3 -9.9 -9.999 -99.9 -99.99 -9.99
2018/07/19 09:54 EDT    0.45   1.23    4   96    5  79.7 -99.9 1017.4 -9.9 -9.999 -99.9 -99.99 -9.99
2018/07/19 10:00 EDT    0.51   1.29    6   91    7  79.7 -99.9 1017.4 -9.9 -9.999 -99.9 -99.99 -9.99
2018/07/19 10:06 EDT    0.57   1.33    5  103    6  79.5 -99.9 1017.4 -9.9 -9.999 -99.9 -99.99 -9.99
2018/07/19 10:12 EDT    0.63   1.37    5  101    8  79.3 -99.9 1017.5 -9.9 -9.999 -99.9 -99.99 -9.99
2018/07/19 10:18 EDT    0.69   1.44    6   99    6  79.2 -99.9 1017.5 -9.9 -9.999 -99.9 -99.99 -9.99
2018/07/19 10:24 EDT    0.75   1.52    6  105    8  79.2 -99.9 1017.6 -9.9 -9.999 -99.9 -99.99 -9.99
2018/07/19 10:30 EDT    0.82   1.61    6   99    8  79.0 -99.9 1017.7 -9.9 -9.999 -99.9 -99.99 -9.99
2018/07/19 10:36 EDT    0.88   1.66    6  100    9  79.0 -99.9 1017.7 -9.9 -9.999 -99.9 -99.99 -9.99
2018/07/19 10:42 EDT    0.95   1.70    7   99   10  79.2 -99.9 1017.7 -9.9 -9.999 -99.9 -99.99 -9.99
2018/07/19 10:48 EDT    1.02   1.78    7   96    9  79.0 -99.9 1017.7 -9.9 -9.999 -99.9 -99.99 -9.99
2018/07/19 10:54 EDT    1.09   1.86    9  100   11  78.6 -99.9 1017.8 -9.9 -9.999 -99.9 -99.99 -9.99
2018/07/19 11:00 EDT    1.17   1.94   11   96   12  78.3 -99.9 1017.8 -9.9 -9.999 -99.9 -99.99 -9.99
2018/07/19 11:06 EDT    1.24   2.01    9  102   12  78.3 -99.9 1017.8 -9.9 -9.999 -99.9 -99.99 -9.99
2018/07/19 11:12 EDT    1.31   2.08    8   98   10  78.3 -99.9 1017.8 -9.9 -9.999 -99.9 -99.99 -9.99
2018/07/19 11:18 EDT    1.39   2.13    9   89   11  78.6 -99.9 1017.9 -9.9 -9.999 -99.9 -99.99 -9.99
2018/07/19 11:24 EDT    1.46   2.19    9   93   11  78.6 -99.9 1017.8 -9.9 -9.999 -99.9 -99.99 -9.99
2018/07/19 11:30 EDT    1.54   2.25    8   96   10  79.0 -99.9 1017.8 -9.9 -9.999 -99.9 -99.99 -9.99
2018/07/19 11:36 EDT    1.61   2.33   10   89   12  78.6 -99.9 1017.8 -9.9 -9.999 -99.9 -99.99 -9.99
2018/07/19 11:42 EDT    1.68   2.39   10   88   11  78.6 -99.9 1017.8 -9.9 -9.999 -99.9 -99.99 -9.99
2018/07/19 11:48 EDT    1.76   2.43    9   98   12  78.6 -99.9 1017.8 -9.9 -9.999 -99.9 -99.99 -9.99
2018/07/19 11:54 EDT    1.83   2.49    9   94   11  78.8 -99.9 1017.7 -9.9 -9.999 -99.9 -99.99 -9.99
2018/07/19 12:00 EDT    1.90   2.60    8   91   10  78.8 -99.9 1017.8 -9.9 -9.999 -99.9 -99.99 -9.99
2018/07/19 12:06 EDT    1.97   2.63    8   99   11  78.8 -99.9 1017.8 -9.9 -9.999 -99.9 -99.99 -9.99
2018/07/19 12:12 EDT    2.04   2.67    9   98   11  78.6 -99.9 1017.9 -9.9 -9.999 -99.9 -99.99 -9.99
2018/07/19 12:18 EDT    2.11   2.73    9   96   11  78.6 -99.9 1017.9 -9.9 -9.999 -99.9 -99.99 -9.99
2018/07/19 12:24 EDT    2.17   2.83    9   93   11  78.6 -99.9 1018.0 -9.9 -9.999 -99.9 -99.99 -9.99
2018/07/19 12:30 EDT    2.23   2.89    9   93   12  78.8 -99.9 1017.9 -9.9 -9.999 -99.9 -99.99 -9.99
2018/07/19 12:36 EDT    2.30   2.95    9  101   11  78.8 -99.9 1018.0 -9.9 -9.999 -99.9 -99.99 -9.99
2018/07/19 12:42 EDT    2.35   3.00    9   97   11  78.8 -99.9 1018.1 -9.9 -9.999 -99.9 -99.99 -9.99
2018/07/19 12:48 EDT    2.41   3.07    9   93   11  79.2 -99.9 1018.1 -9.9 -9.999 -99.9 -99.99 -9.99
2018/07/19 12:54 EDT    2.47   3.12    9   96   11  78.6 -99.9 1018.1 -9.9 -9.999 -99.9 -99.99 -9.99
2018/07/19 13:00 EDT    2.52   3.15    9   95   12  79.0 -99.9 1018.1 -9.9 -9.999 -99.9 -99.99 -9.99
2018/07/19 13:06 EDT    2.56   3.22    8   97   12  79.0 -99.9 1018.0 -9.9 -9.999 -99.9 -99.99 -9.99
2018/07/19 13:12 EDT    2.61   3.26    9   82   11  78.6 -99.9 1018.0 -9.9 -9.999 -99.9 -99.99 -9.99
2018/07/19 13:18 EDT    2.65   3.29    9   86   11  78.8 -99.9 1017.9 -9.9 -9.999 -99.9 -99.99 -9.99
2018/07/19 13:24 EDT    2.69   3.35   10   86   12  78.8 -99.9 1017.9 -9.9 -9.999 -99.9 -99.99 -9.99
2018/07/19 13:30 EDT    2.73   3.40   10   94   12  78.4 -99.9 1017.8 -9.9 -9.999 -99.9 -99.99 -9.99
2018/07/19 13:36 EDT    2.76   3.40   10   89   12  78.4 -99.9 1017.8 -9.9 -9.999 -99.9 -99.99 -9.99
2018/07/19 13:42 EDT    2.79   3.41   11   89   13  78.4 -99.9 1017.7 -9.9 -9.999 -99.9 -99.99 -9.99
2018/07/19 13:48 EDT    2.82   3.42   11   93   14  78.3 -99.9 1017.8 -9.9 -9.999 -99.9 -99.99 -9.99
2018/07/19 13:54 EDT    2.85   3.47   10   98   13  78.6 -99.9 1017.8 -9.9 -9.999 -99.9 -99.99 -9.99
2018/07/19 14:00 EDT    2.87   3.49   11   93   12  78.4 -99.9 1017.9 -9.9 -9.999 -99.9 -99.99 -9.99
2018/07/19 14:06 EDT    2.89   3.53   10   91   13  78.4 -99.9 1017.8 -9.9 -9.999 -99.9 -99.99 -9.99
2018/07/19 14:12 EDT    2.90   3.56   10  101   12  78.6 -99.9 1017.8 -9.9 -9.999 -99.9 -99.99 -9.99
2018/07/19 14:18 EDT    2.92   3.54   11  106   12  78.4 -99.9 1017.8 -9.9 -9.999 -99.9 -99.99 -9.99
2018/07/19 14:24 EDT    2.93   3.52   11  107   13  78.4 -99.9 1017.9 -9.9 -9.999 -99.9 -99.99 -9.99
2018/07/19 14:30 EDT    2.93   3.54   10  110   12  78.4 -99.9 1017.9 -9.9 -9.999 -99.9 -99.99 -9.99
2018/07/19 14:36 EDT    2.94   3.53    9  103   12  78.4 -99.9 1017.8 -9.9 -9.999 -99.9 -99.99 -9.99
2018/07/19 14:42 EDT    2.94   3.53   10  110   12  78.4 -99.9 1017.9 -9.9 -9.999 -99.9 -99.99 -9.99
2018/07/19 14:48 EDT    2.94   3.55    9  105   11  78.6 -99.9 1017.8 -9.9 -9.999 -99.9 -99.99 -9.99
2018/07/19 14:54 EDT    2.93   3.52   10  112   13  78.6 -99.9 1017.9 -9.9 -9.999 -99.9 -99.99 -9.99
2018/07/19 15:00 EDT    2.93   3.54   10  108   12  78.6 -99.9 1017.8 -9.9 -9.999 -99.9 -99.99 -9.99
2018/07/19 15:06 EDT    2.92   3.50   10  104   12  78.6 -99.9 1017.7 -9.9 -9.999 -99.9 -99.99 -9.99
2018/07/19 15:12 EDT    2.91   3.50    9  102   12  78.6 -99.9 1017.7 -9.9 -9.999 -99.9 -99.99 -9.99
2018/07/19 15:18 EDT    2.89   3.48   10  112   13  78.6 -99.9 1017.6 -9.9 -9.999 -99.9 -99.99 -9.99
2018/07/19 15:24 EDT    2.87   3.44   10  105   12  78.6 -99.9 1017.5 -9.9 -9.999 -99.9 -99.99 -9.99
2018/07/19 15:30 EDT    2.85   3.43   10  103   12  78.6 -99.9 1017.6 -9.9 -9.999 -99.9 -99.99 -9.99
2018/07/19 15:36 EDT    2.83   3.40   11  108   13  78.4 -99.9 1017.5 -9.9 -9.999 -99.9 -99.99 -9.99
2018/07/19 15:42 EDT    2.80   3.35   10  110   13  78.4 -99.9 1017.5 -9.9 -9.999 -99.9 -99.99 -9.99
2018/07/19 15:48 EDT    2.77   3.29   10  112   12  78.6 -99.9 1017.5 -9.9 -9.999 -99.9 -99.99 -9.99
2018/07/19 15:54 EDT    2.74   3.31   11  110   12  78.4 -99.9 1017.4 -9.9 -9.999 -99.9 -99.99 -9.99
2018/07/19 16:00 EDT    2.71   3.24   10  105   13  78.4 -99.9 1017.5 -9.9 -9.999 -99.9 -99.99 -9.99
2018/07/19 16:06 EDT    2.67   3.22   10  111   12  78.6 -99.9 1017.6 -9.9 -9.999 -99.9 -99.99 -9.99
2018/07/19 16:12 EDT    2.63   3.18   10  119   12  78.4 -99.9 1017.5 -9.9 -9.999 -99.9 -99.99 -9.99
2018/07/19 16:18 EDT    2.59   3.12   10  105   12  78.4 -99.9 1017.5 -9.9 -9.999 -99.9 -99.99 -9.99
2018/07/19 16:24 EDT    2.54   3.11   11  107   13  78.4 -99.9 1017.5 -9.9 -9.999 -99.9 -99.99 -9.99
2018/07/19 16:30 EDT    2.49   3.06   10  103   12  78.4 -99.9 1017.5 -9.9 -9.999 -99.9 -99.99 -9.99
2018/07/19 16:36 EDT    2.44   3.05   10  101   12  78.6 -99.9 1017.4 -9.9 -9.999 -99.9 -99.99 -9.99
2018/07/19 16:42 EDT    2.39   3.01   12  113   13  78.4 -99.9 1017.4 -9.9 -9.999 -99.9 -99.99 -9.99
2018/07/19 16:48 EDT    2.33   2.95   11  112   13  78.4 -99.9 1017.3 -9.9 -9.999 -99.9 -99.99 -9.99
2018/07/19 16:54 EDT    2.27   2.91   11  113   13  78.6 -99.9 1017.3 -9.9 -9.999 -99.9 -99.99 -9.99
2018/07/19 17:00 EDT    2.21   2.84   11  109   12  78.6 -99.9 1017.2 -9.9 -9.999 -99.9 -99.99 -9.99
2018/07/19 17:06 EDT    2.15   2.78   10  111   12  78.8 -99.9 1017.2 -9.9 -9.999 -99.9 -99.99 -9.99
2018/07/19 17:12 EDT    2.09   2.74   10  109   12  78.6 -99.9 1017.1 -9.9 -9.999 -99.9 -99.99 -9.99
2018/07/19 17:18 EDT    2.02   2.70   11  113   13  78.4 -99.9 1017.1 -9.9 -9.999 -99.9 -99.99 -9.99
2018/07/19 17:24 EDT    1.96   2.63   11  111   13  78.4 -99.9 1017.0 -9.9 -9.999 -99.9 -99.99 -9.99
2018/07/19 17:30 EDT    1.89   2.57   11  110   12  78.4 -99.9 1017.0 -9.9 -9.999 -99.9 -99.99 -9.99
2018/07/19 17:36 EDT    1.82   2.48   10  105   13  78.6 -99.9 1017.0 -9.9 -9.999 -99.9 -99.99 -9.99
2018/07/19 17:42 EDT    1.75   2.43   11  110   13  78.6 -99.9 1016.9 -9.9 -9.999 -99.9 -99.99 -9.99
2018/07/19 17:48 EDT    1.68   2.35   10  107   12  78.6 -99.9 1017.0 -9.9 -9.999 -99.9 -99.99 -9.99
2018/07/19 17:54 EDT    1.61   2.32   10  115   12  78.6 -99.9 1017.0 -9.9 -9.999 -99.9 -99.99 -9.99
2018/07/19 18:00 EDT    1.55   2.22   10  112   12  78.8 -99.9 1017.0 -9.9 -9.999 -99.9 -99.99 -9.99
2018/07/19 18:06 EDT    1.48   2.16   10  112   12  78.6 -99.9 1017.0 -9.9 -9.999 -99.9 -99.99 -9.99
2018/07/19 18:12 EDT    1.41   2.10   10  107   12  78.8 -99.9 1016.9 -9.9 -9.999 -99.9 -99.99 -9.99
2018/07/19 18:18 EDT    1.34   2.01   11  117   12  78.4 -99.9 1016.9 -9.9 -9.999 -99.9 -99.99 -9.99
2018/07/19 18:24 EDT    1.28   1.94   10  116   12  78.3 -99.9 1016.9 -9.9 -9.999 -99.9 -99.99 -9.99
2018/07/19 18:30 EDT    1.21   1.88   10  114   13  78.6 -99.9 1016.9 -9.9 -9.999 -99.9 -99.99 -9.99
2018/07/19 18:36 EDT    1.15   1.81   10  115   13  78.6 -99.9 1016.9 -9.9 -9.999 -99.9 -99.99 -9.99
2018/07/19 18:42 EDT    1.08   1.75   10  114   12  78.6 -99.9 1016.9 -9.9 -9.999 -99.9 -99.99 -9.99
2018/07/19 18:48 EDT    1.02   1.69   11  116   13  78.4 -99.9 1016.9 -9.9 -9.999 -99.9 -99.99 -9.99
2018/07/19 18:54 EDT    0.97   1.59   11  117   13  78.6 -99.9 1017.0 -9.9 -9.999 -99.9 -99.99 -9.99
2018/07/19 19:00 EDT    0.91   1.53   10  117   12  78.6 -99.9 1017.0 -9.9 -9.999 -99.9 -99.99 -9.99
2018/07/19 19:06 EDT    0.85   1.51   11  117   12  78.6 -99.9 1017.1 -9.9 -9.999 -99.9 -99.99 -9.99
2018/07/19 19:12 EDT    0.80   1.46    9  110   11  78.4 -99.9 1017.1 -9.9 -9.999 -99.9 -99.99 -9.99
2018/07/19 19:18 EDT    0.75   1.41   11  117   12  78.3 -99.9 1017.1 -9.9 -9.999 -99.9 -99.99 -9.99
2018/07/19 19:24 EDT    0.70   1.36   11  118   12  78.1 -99.9 1017.1 -9.9 -9.999 -99.9 -99.99 -9.99
2018/07/19 19:30 EDT    0.65   1.33   11  117   13  78.4 -99.9 1017.1 -9.9 -9.999 -99.9 -99.99 -9.99
2018/07/19 19:36 EDT    0.61   1.30   10  126   12  78.4 -99.9 1017.1 -9.9 -9.999 -99.9 -99.99 -9.99
2018/07/19 19:42 EDT    0.57   1.28   10  122   12  78.4 -99.9 1017.2 -9.9 -9.999 -99.9 -99.99 -9.99
2018/07/19 19:48 EDT    0.53   1.22   10  119   11  78.4 -99.9 1017.2 -9.9 -9.999 -99.9 -99.99 -9.99
2018/07/19 19:54 EDT    0.50   1.19    8  124   12  78.4 -99.9 1017.4 -9.9 -9.999 -99.9 -99.99 -9.99
2018/07/19 20:00 EDT    0.46   1.14    9  133   11  78.3 -99.9 1017.3 -9.9 -9.999 -99.9 -99.99 -9.99
2018/07/19 20:06 EDT    0.43   1.13    9  136   11  78.3 -99.9 1017.3 -9.9 -9.999 -99.9 -99.99 -9.99
2018/07/19 20:12 EDT    0.41   1.12   10  132   11  78.1 -99.9 1017.4 -9.9 -9.999 -99.9 -99.99 -9.99
2018/07/19 20:18 EDT    0.38   1.09    9  136   11  77.9 -99.9 1017.4 -9.9 -9.999 -99.9 -99.99 -9.99
2018/07/19 20:24 EDT    0.36   1.05   11  136   13  77.9 -99.9 1017.3 -9.9 -9.999 -99.9 -99.99 -9.99
2018/07/19 20:30 EDT    0.34   1.04   10  137   13  77.9 -99.9 1017.3 -9.9 -9.999 -99.9 -99.99 -9.99
2018/07/19 20:36 EDT    0.33   1.02   10  133   12  77.9 -99.9 1017.3 -9.9 -9.999 -99.9 -99.99 -9.99
2018/07/19 20:42 EDT    0.32   1.02    9  133   12  77.9 -99.9 1017.2 -9.9 -9.999 -99.9 -99.99 -9.99
2018/07/19 20:48 EDT    0.31   1.01    9  140   11  77.9 -99.9 1017.3 -9.9 -9.999 -99.9 -99.99 -9.99
2018/07/19 20:54 EDT    0.30   1.00    9  135   12  77.7 -99.9 1017.4 -9.9 -9.999 -99.9 -99.99 -9.99
2018/07/19 21:00 EDT    0.30   1.01   11  146   13  77.7 -99.9 1017.4 -9.9 -9.999 -99.9 -99.99 -9.99
2018/07/19 21:06 EDT    0.30   1.01    9  134   12  77.7 -99.9 1017.5 -9.9 -9.999 -99.9 -99.99 -9.99
2018/07/19 21:12 EDT    0.31   1.03   10  136   12  77.7 -99.9 1017.6 -9.9 -9.999 -99.9 -99.99 -9.99
2018/07/19 21:18 EDT    0.32   1.02   10  140   11  77.7 -99.9 1017.6 -9.9 -9.999 -99.9 -99.99 -9.99
2018/07/19 21:24 EDT    0.33   1.01   10  131   11  77.7 -99.9 1017.7 -9.9 -9.999 -99.9 -99.99 -9.99
2018/07/19 21:30 EDT    0.34   1.07    7  140   11  77.5 -99.9 1017.8 -9.9 -9.999 -99.9 -99.99 -9.99
2018/07/19 21:36 EDT    0.36   1.08    9  143   11  77.5 -99.9 1017.9 -9.9 -9.999 -99.9 -99.99 -9.99
2018/07/19 21:42 EDT    0.38   1.07    7  131   10  77.7 -99.9 1018.1 -9.9 -9.999 -99.9 -99.99 -9.99
2018/07/19 21:48 EDT    0.41   1.12    9  141   11  77.7 -99.9 1018.1 -9.9 -9.999 -99.9 -99.99 -9.99
2018/07/19 21:54 EDT    0.43   1.13    9  142   11  77.7 -99.9 1018.2 -9.9 -9.999 -99.9 -99.99 -9.99
2018/07/19 22:00 EDT    0.46   1.16    8  142   11  77.9 -99.9 1018.2 -9.9 -9.999 -99.9 -99.99 -9.99
2018/07/19 22:06 EDT    0.50   1.17    9  145   11  77.7 -99.9 1018.2 -9.9 -9.999 -99.9 -99.99 -9.99
2018/07/19 22:12 EDT    0.53   1.23    9  127   11  77.9 -99.9 1018.2 -9.9 -9.999 -99.9 -99.99 -9.99
2018/07/19 22:18 EDT    0.57   1.28    8  138   11  77.7 -99.9 1018.3 -9.9 -9.999 -99.9 -99.99 -9.99
2018/07/19 22:24 EDT    0.61   1.29    8  125   10  77.9 -99.9 1018.4 -9.9 -9.999 -99.9 -99.99 -9.99
2018/07/19 22:30 EDT    0.66   1.33    9  137   11  77.9 -99.9 1018.4 -9.9 -9.999 -99.9 -99.99 -9.99
2018/07/19 22:36 EDT    0.70   1.37    8  118   10  77.9 -99.9 1018.4 -9.9 -9.999 -99.9 -99.99 -9.99
2018/07/19 22:42 EDT    0.75   1.39    8  124   10  77.9 -99.9 1018.3 -9.9 -9.999 -99.9 -99.99 -9.99
2018/07/19 22:48 EDT    0.80   1.46    9  127   10  77.7 -99.9 1018.3 -9.9 -9.999 -99.9 -99.99 -9.99
2018/07/19 22:54 EDT    0.85   1.52    9  121   11  77.7 -99.9 1018.3 -9.9 -9.999 -99.9 -99.99 -9.99
2018/07/19 23:00 EDT    0.90   1.57    8  122   11  77.9 -99.9 1018.3 -9.9 -9.999 -99.9 -99.99 -9.99
2018/07/19 23:06 EDT    0.96   1.60    9  126   11  77.7 -99.9 1018.3 -9.9 -9.999 -99.9 -99.99 -9.99
2018/07/19 23:12 EDT    1.01   1.69   10  132   11  77.7 -99.9 1018.3 -9.9 -9.999 -99.9 -99.99 -9.99
2018/07/19 23:18 EDT    1.07   1.72    9  124   11  77.7 -99.9 1018.3 -9.9 -9.999 -99.9 -99.99 -9.99
2018/07/19 23:24 EDT    1.13   1.79    9  122   11  77.7 -99.9 1018.3 -9.9 -9.999 -99.9 -99.99 -9.99
2018/07/19 23:30 EDT    1.19   1.84    9  121   11  77.7 -99.9 1018.3 -9.9 -9.999 -99.9 -99.99 -9.99
2018/07/19 23:36 EDT    1.25   1.92    8  117   11  77.7 -99.9 1018.3 -9.9 -9.999 -99.9 -99.99 -9.99
2018/07/19 23:42 EDT    1.31   1.98    9  126   12  77.5 -99.9 1018.3 -9.9 -9.999 -99.9 -99.99 -9.99
2018/07/19 23:48 EDT    1.37   2.05   10  123   11  77.5 -99.9 1018.3 -9.9 -9.999 -99.9 -99.99 -9.99
2018/07/19 23:54 EDT    1.43   2.12    9  125   11  77.5 -99.9 1018.3 -9.9 -9.999 -99.9 -99.99 -9.99
2018/07/20 00:00 EDT    1.49   2.20   10  120   12  77.5 -99.9 1018.3 -9.9 -9.999 -99.9 -99.99 -9.99
2018/07/20 00:06 EDT    1.55   2.25    8  121   11  77.5 -99.9 1018.3 -9.9 -9.999 -99.9 -99.99 -9.99
2018/07/20 00:12 EDT    1.61   2.30    9  126   11  77.5 -99.9 1018.3 -9.9 -9.999 -99.9 -99.99 -9.99
2018/07/20 00:18 EDT    1.67   2.38    8  118   11  77.5 -99.9 1018.4 -9.9 -9.999 -99.9 -99.99 -9.99
2018/07/20 00:24 EDT    1.72   2.47    6  120   11  77.5 -99.9 1018.4 -9.9 -9.999 -99.9 -99.99 -9.99
2018/07/20 00:30 EDT    1.78   2.47    9  119   10  77.5 -99.9 1018.4 -9.9 -9.999 -99.9 -99.99 -9.99
2018/07/20 00:36 EDT    1.84   2.50    7  122   10  77.5 -99.9 1018.4 -9.9 -9.999 -99.9 -99.99 -9.99
2018/07/20 00:42 EDT    1.89   2.58    7  129    9  77.4 -99.9 1018.4 -9.9 -9.999 -99.9 -99.99 -9.99
2018/07/20 00:48 EDT    1.95   2.64    8  123   10  77.4 -99.9 1018.4 -9.9 -9.999 -99.9 -99.99 -9.99
2018/07/20 00:54 EDT    2.00   2.71    8  131   10  77.4 -99.9 1018.3 -9.9 -9.999 -99.9 -99.99 -9.99
2018/07/20 01:00 EDT    2.05   2.75    8  127   11  77.4 -99.9 1018.3 -9.9 -9.999 -99.9 -99.99 -9.99
2018/07/20 01:06 EDT    2.10   2.80    8  129   10  77.5 -99.9 1018.4 -9.9 -9.999 -99.9 -99.99 -9.99
2018/07/20 01:12 EDT    2.15   2.86    8  121   10  77.4 -99.9 1018.4 -9.9 -9.999 -99.9 -99.99 -9.99
2018/07/20 01:18 EDT    2.19   2.88    8  121   11  77.4 -99.9 1018.4 -9.9 -9.999 -99.9 -99.99 -9.99
2018/07/20 01:24 EDT    2.23   2.94    9  116   10  77.4 -99.9 1018.3 -9.9 -9.999 -99.9 -99.99 -9.99
2018/07/20 01:30 EDT    2.27   2.97    8  121   11  77.4 -99.9 1018.3 -9.9 -9.999 -99.9 -99.99 -9.99
2018/07/20 01:36 EDT    2.31   3.04    9  120   10  77.4 -99.9 1018.2 -9.9 -9.999 -99.9 -99.99 -9.99
2018/07/20 01:42 EDT    2.34   3.04    8  120   10  77.4 -99.9 1018.2 -9.9 -9.999 -99.9 -99.99 -9.99
2018/07/20 01:48 EDT    2.38   3.08    8  117   10  77.2 -99.9 1018.1 -9.9 -9.999 -99.9 -99.99 -9.99
2018/07/20 01:54 EDT    2.40   3.11    9  115   10  77.2 -99.9 1018.0 -9.9 -9.999 -99.9 -99.99 -9.99
2018/07/20 02:00 EDT    2.43   3.15    7  121   10  77.2 -99.9 1018.0 -9.9 -9.999 -99.9 -99.99 -9.99
2018/07/20 02:06 EDT    2.46   3.16    8  119   10  77.0 -99.9 1017.9 -9.9 -9.999 -99.9 -99.99 -9.99
2018/07/20 02:12 EDT    2.48   3.16    8  119   10  77.0 -99.9 1017.9 -9.9 -9.999 -99.9 -99.99 -9.99
2018/07/20 02:18 EDT    2.50   3.19    9  119   10  77.0 -99.9 1017.9 -9.9 -9.999 -99.9 -99.99 -9.99
2018/07/20 02:24 EDT    2.51   3.19    8  117   11  77.0 -99.9 1017.9 -9.9 -9.999 -99.9 -99.99 -9.99
2018/07/20 02:30 EDT    2.53   3.22    9  115   11  76.8 -99.9 1017.9 -9.9 -9.999 -99.9 -99.99 -9.99
2018/07/20 02:36 EDT    2.54   3.22    8  124   10  77.0 -99.9 1017.9 -9.9 -9.999 -99.9 -99.99 -9.99
2018/07/20 02:42 EDT    2.54   3.23    9  123   11  76.8 -99.9 1017.9 -9.9 -9.999 -99.9 -99.99 -9.99
2018/07/20 02:48 EDT    2.55   3.22    9  131   11  76.8 -99.9 1017.9 -9.9 -9.999 -99.9 -99.99 -9.99
2018/07/20 02:54 EDT    2.55   3.23    8  119   10  76.8 -99.9 1017.9 -9.9 -9.999 -99.9 -99.99 -9.99
2018/07/20 03:00 EDT    2.55   3.21    9  129   11  76.8 -99.9 1017.9 -9.9 -9.999 -99.9 -99.99 -9.99
2018/07/20 03:06 EDT    2.55   3.23    8  123   11  76.6 -99.9 1017.9 -9.9 -9.999 -99.9 -99.99 -9.99
2018/07/20 03:12 EDT    2.55   3.21    9  122   10  76.6 -99.9 1017.9 -9.9 -9.999 -99.9 -99.99 -9.99
2018/07/20 03:18 EDT    2.54   3.18    8  128   11  76.8 -99.9 1017.9 -9.9 -9.999 -99.9 -99.99 -9.99
2018/07/20 03:24 EDT    2.53   3.18    7  118   10  76.8 -99.9 1017.8 -9.9 -9.999 -99.9 -99.99 -9.99
2018/07/20 03:30 EDT    2.52   3.14    9  117   11  76.6 -99.9 1017.9 -9.9 -9.999 -99.9 -99.99 -9.99
2018/07/20 03:36 EDT    2.51   3.15    9  118   11  76.6 -99.9 1017.8 -9.9 -9.999 -99.9 -99.99 -9.99
2018/07/20 03:42 EDT    2.49   3.12    9  118   11  76.6 -99.9 1017.8 -9.9 -9.999 -99.9 -99.99 -9.99
2018/07/20 03:48 EDT    2.47   3.12    9  116   10  76.6 -99.9 1017.9 -9.9 -9.999 -99.9 -99.99 -9.99
2018/07/20 03:54 EDT    2.45   3.10    9  122   11  76.6 -99.9 1017.9 -9.9 -9.999 -99.9 -99.99 -9.99
2018/07/20 04:00 EDT    2.43   3.09    9  121   11  76.6 -99.9 1017.8 -9.9 -9.999 -99.9 -99.99 -9.99
2018/07/20 04:06 EDT    2.40   3.06    9  114   10  76.6 -99.9 1017.8 -9.9 -9.999 -99.9 -99.99 -9.99
2018/07/20 04:12 EDT    2.37   3.03    9  121   12  76.6 -99.9 1017.8 -9.9 -9.999 -99.9 -99.99 -9.99
2018/07/20 04:18 EDT    2.34   2.98    9  121   11  76.6 -99.9 1017.7 -9.9 -9.999 -99.9 -99.99 -9.99
2018/07/20 04:24 EDT    2.31   2.99   10  128   11  76.6 -99.9 1017.6 -9.9 -9.999 -99.9 -99.99 -9.99
2018/07/20 04:30 EDT    2.27   2.95    9  117   11  76.6 -99.9 1017.6 -9.9 -9.999 -99.9 -99.99 -9.99
2018/07/20 04:36 EDT    2.23   2.89   10  124   11  76.6 -99.9 1017.5 -9.9 -9.999 -99.9 -99.99 -9.99
2018/07/20 04:42 EDT    2.19   2.86    9  124   11  76.6 -99.9 1017.5 -9.9 -9.999 -99.9 -99.99 -9.99
2018/07/20 04:48 EDT    2.15   2.86   10  122   11  76.5 -99.9 1017.5 -9.9 -9.999 -99.9 -99.99 -9.99
2018/07/20 04:54 EDT    2.10   2.82   10  121   12  76.6 -99.9 1017.5 -9.9 -9.999 -99.9 -99.99 -9.99
2018/07/20 05:00 EDT    2.05   2.75   10  119   11  76.6 -99.9 1017.5 -9.9 -9.999 -99.9 -99.99 -9.99
2018/07/20 05:06 EDT    2.00   2.72    9  114   11  76.6 -99.9 1017.5 -9.9 -9.999 -99.9 -99.99 -9.99
2018/07/20 05:12 EDT    1.95   2.66    9  121   11  76.6 -99.9 1017.5 -9.9 -9.999 -99.9 -99.99 -9.99
2018/07/20 05:18 EDT    1.89   2.59    9  121   10  76.6 -99.9 1017.6 -9.9 -9.999 -99.9 -99.99 -9.99
2018/07/20 05:24 EDT    1.84   2.54    9  115   10  76.5 -99.9 1017.7 -9.9 -9.999 -99.9 -99.99 -9.99
2018/07/20 05:30 EDT    1.78   2.48    8  121   10  76.5 -99.9 1017.8 -9.9 -9.999 -99.9 -99.99 -9.99
2018/07/20 05:36 EDT    1.72   2.42    9  116   11  76.5 -99.9 1017.8 -9.9 -9.999 -99.9 -99.99 -9.99
2018/07/20 05:42 EDT    1.66   2.38    8  118    9  76.5 -99.9 1017.9 -9.9 -9.999 -99.9 -99.99 -9.99
2018/07/20 05:48 EDT    1.60   2.34    8  121   10  76.5 -99.9 1017.9 -9.9 -9.999 -99.9 -99.99 -9.99
2018/07/20 05:54 EDT    1.53   2.28    8  124   10  76.5 -99.9 1018.0 -9.9 -9.999 -99.9 -99.99 -9.99
2018/07/20 06:00 EDT    1.47   2.20   10  131   11  76.5 -99.9 1018.0 -9.9 -9.999 -99.9 -99.99 -9.99
2018/07/20 06:06 EDT    1.40   2.12   10  138   11  76.6 -99.9 1018.0 -9.9 -9.999 -99.9 -99.99 -9.99
2018/07/20 06:12 EDT    1.34   2.02    9  137   11  76.8 -99.9 1018.0 -9.9 -9.999 -99.9 -99.99 -9.99
2018/07/20 06:18 EDT    1.28   1.96    8  136   12  76.8 -99.9 1018.0 -9.9 -9.999 -99.9 -99.99 -9.99
2018/07/20 06:24 EDT    1.21   1.90   10  130   11  76.8 -99.9 1018.0 -9.9 -9.999 -99.9 -99.99 -9.99
2018/07/20 06:30 EDT    1.15   1.83    9  134   11  77.0 -99.9 1018.0 -9.9 -9.999 -99.9 -99.99 -9.99
2018/07/20 06:36 EDT    1.08   1.81   10  133   11  77.0 -99.9 1018.0 -9.9 -9.999 -99.9 -99.99 -9.99
2018/07/20 06:42 EDT    1.02   1.73    8  129   11  77.0 -99.9 1018.1 -9.9 -9.999 -99.9 -99.99 -9.99
2018/07/20 06:48 EDT    0.96   1.67    9  129   11  76.8 -99.9 1018.1 -9.9 -9.999 -99.9 -99.99 -9.99
2018/07/20 06:54 EDT    0.90   1.64    8  127   11  77.0 -99.9 1018.1 -9.9 -9.999 -99.9 -99.99 -9.99
2018/07/20 07:00 EDT    0.84   1.56    9  127   11  77.2 -99.9 1018.2 -9.9 -9.999 -99.9 -99.99 -9.99
2018/07/20 07:06 EDT    0.78   1.54    9  131   12  77.4 -99.9 1018.3 -9.9 -9.999 -99.9 -99.99 -9.99
2018/07/20 07:12 EDT    0.73   1.45   10  131   11  77.4 -99.9 1018.4 -9.9 -9.999 -99.9 -99.99 -9.99
2018/07/20 07:18 EDT    0.67   1.41    9  131   11  77.5 -99.9 1018.5 -9.9 -9.999 -99.9 -99.99 -9.99
2018/07/20 07:24 EDT    0.62   1.36   10  127   12  77.4 -99.9 1018.3 -9.9 -9.999 -99.9 -99.99 -9.99
2018/07/20 07:30 EDT    0.57   1.32    9  115   11  77.4 -99.9 1018.3 -9.9 -9.999 -99.9 -99.99 -9.99
2018/07/20 07:36 EDT    0.52   1.28    8  119   11  77.5 -99.9 1018.3 -9.9 -9.999 -99.9 -99.99 -9.99
2018/07/20 07:42 EDT    0.47   1.22    9  118   11  77.5 -99.9 1018.4 -9.9 -9.999 -99.9 -99.99 -9.99
2018/07/20 07:48 EDT    0.43   1.17    9  123   11  77.5 -99.9 1018.4 -9.9 -9.999 -99.9 -99.99 -9.99
2018/07/20 07:54 EDT    0.39   1.14    9  126   11  77.7 -99.9 1018.4 -9.9 -9.999 -99.9 -99.99 -9.99
2018/07/20 08:00 EDT    0.35   1.12    8  125   10  77.7 -99.9 1018.4 -9.9 -9.999 -99.9 -99.99 -9.99
2018/07/20 08:06 EDT    0.32   1.09   10  119   11  77.7 -99.9 1018.4 -9.9 -9.999 -99.9 -99.99 -9.99
2018/07/20 08:12 EDT    0.28   1.05   10  121   11  77.5 -99.9 1018.5 -9.9 -9.999 -99.9 -99.99 -9.99
2018/07/20 08:18 EDT    0.25   1.03    9  125   12  77.7 -99.9 1018.5 -9.9 -9.999 -99.9 -99.99 -9.99
2018/07/20 08:24 EDT    0.22   1.01    9  124   11  77.7 -99.9 1018.5 -9.9 -9.999 -99.9 -99.99 -9.99
2018/07/20 08:30 EDT    0.20   0.98   10  113   12  77.9 -99.9 1018.5 -9.9 -9.999 -99.9 -99.99 -9.99
2018/07/20 08:36 EDT    0.18   0.97   10  116   12  77.7 -99.9 1018.5 -9.9 -9.999 -99.9 -99.99 -9.99
2018/07/20 08:42 EDT    0.16   0.94   10  118   13  77.9 -99.9 1018.6 -9.9 -9.999 -99.9 -99.99 -9.99
2018/07/20 08:48 EDT    0.15   0.93    9  125   12  77.9 -99.9 1018.6 -9.9 -9.999 -99.9 -99.99 -9.99
2018/07/20 08:54 EDT    0.13   0.91   12  117   13  77.9 -99.9 1018.7 -9.9 -9.999 -99.9 -99.99 -9.99
2018/07/20 09:00 EDT    0.12   0.91   10  113   13  77.9 -99.9 1018.7 -9.9 -9.999 -99.9 -99.99 -9.99
2018/07/20 09:06 EDT    0.12   0.90   11  119   13  78.1 -99.9 1018.8 -9.9 -9.999 -99.9 -99.99 -9.99
2018/07/20 09:12 EDT    0.12   0.89   11  116   13  78.1 -99.9 1018.8 -9.9 -9.999 -99.9 -99.99 -9.99
2018/07/20 09:18 EDT    0.12   0.88   11  116   13  78.1 -99.9 1018.8 -9.9 -9.999 -99.9 -99.99 -9.99
2018/07/20 09:24 EDT    0.12   0.91   10  119   12  78.1 -99.9 1018.9 -9.9 -9.999 -99.9 -99.99 -9.99
2018/07/20 09:30 EDT    0.13   0.92   10  119   11  78.1 -99.9 1018.9 -9.9 -9.999 -99.9 -99.99 -9.99
2018/07/20 09:36 EDT    0.14   0.91    8  118   11  78.3 -99.9 1019.0 -9.9 -9.999 -99.9 -99.99 -9.99
2018/07/20 09:42 EDT    0.16   0.91    8  114   12  78.4 -99.9 1019.0 -9.9 -9.999 -99.9 -99.99 -9.99
2018/07/20 09:48 EDT    0.18   0.94   10  118   11  78.1 -99.9 1018.9 -9.9 -9.999 -99.9 -99.99 -9.99
2018/07/20 09:54 EDT    0.20   0.98    9  109   11  78.1 -99.9 1019.0 -9.9 -9.999 -99.9 -99.99 -9.99
2018/07/20 10:00 EDT    0.22   1.00    9  109   11  78.1 -99.9 1019.0 -9.9 -9.999 -99.9 -99.99 -9.99
2018/07/20 10:06 EDT    0.25   1.05    8  109   10  78.1 -99.9 1019.0 -9.9 -9.999 -99.9 -99.99 -9.99
2018/07/20 10:12 EDT    0.28   1.08    8  107   10  78.1 -99.9 1019.1 -9.9 -9.999 -99.9 -99.99 -9.99
2018/07/20 10:18 EDT    0.32   1.09    8  105    9  78.3 -99.9 1019.1 -9.9 -9.999 -99.9 -99.99 -9.99
2018/07/20 10:24 EDT    0.35 -99.99 -999 -999 -999 -99.9 -99.9 -999.9 -9.9 -9.999 -99.9 -99.99 -9.99
2018/07/20 10:30 EDT    0.39 -99.99 -999 -999 -999 -99.9 -99.9 -999.9 -9.9 -9.999 -99.9 -99.99 -9.99
2018/07/20 10:36 EDT    0.44 -99.99 -999 -999 -999 -99.9 -99.9 -999.9 -9.9 -9.999 -99.9 -99.99 -9.99

Revised: 10/15/2013
NOAA / National Ocean Service
Web site owner: Center for Operational Oceanographic Products and Services